<?xml version='1.0' encoding='UTF-8'?><gpx version="1.1" creator="JPX - https://github.com/jenetics/jpx" xmlns="http://www.topografix.com/GPX/1/1"><trk><trkseg><trkpt lat="37.1571736" lon="14.8988759"><ele>475.0</ele><time>2026-04-06T07:56:52.873Z</time></trkpt><trkpt lat="37.1572207" lon="14.8989566"><ele>475.00000000000006</ele><time>2026-04-06T07:56:56.916Z</time></trkpt><trkpt lat="37.1572104" lon="14.8990387"><ele>475.0</ele><time>2026-04-06T07:57:02.857Z</time></trkpt><trkpt lat="37.1571559" lon="14.8990861"><ele>475.0</ele><time>2026-04-06T07:57:09.826Z</time></trkpt><trkpt lat="37.1571101" lon="14.899145"><ele>475.00000000000006</ele><time>2026-04-06T07:57:18.873Z</time></trkpt><trkpt lat="37.1570579" lon="14.89919"><ele>475.0</ele><time>2026-04-06T07:57:24.905Z</time></trkpt><trkpt lat="37.1570042" lon="14.8992385"><ele>475.0</ele><time>2026-04-06T07:57:31.977Z</time></trkpt><trkpt lat="37.1569284" lon="14.8993068"><ele>475.0</ele><time>2026-04-06T07:58:50.936Z</time></trkpt><trkpt lat="37.1568722" lon="14.8993542"><ele>475.00000000000006</ele><time>2026-04-06T07:58:56.945Z</time></trkpt><trkpt lat="37.1568014" lon="14.8993652"><ele>475.0</ele><time>2026-04-06T07:59:07.865Z</time></trkpt><trkpt lat="37.1567377" lon="14.8993559"><ele>475.0</ele><time>2026-04-06T07:59:14.937Z</time></trkpt><trkpt lat="37.1566732" lon="14.899352"><ele>475.00000000000006</ele><time>2026-04-06T07:59:25.896Z</time></trkpt><trkpt lat="37.1566057" lon="14.8993567"><ele>475.0</ele><time>2026-04-06T07:59:33.969Z</time></trkpt><trkpt lat="37.1565332" lon="14.899361"><ele>475.0</ele><time>2026-04-06T07:59:42.913Z</time></trkpt><trkpt lat="37.1564641" lon="14.8993472"><ele>475.0</ele><time>2026-04-06T07:59:48.915Z</time></trkpt><trkpt lat="37.1563974" lon="14.8993366"><ele>475.00000000000006</ele><time>2026-04-06T07:59:55.913Z</time></trkpt><trkpt lat="37.1563282" lon="14.8993107"><ele>475.0</ele><time>2026-04-06T08:00:03.795Z</time></trkpt><trkpt lat="37.1562631" lon="14.8992956"><ele>475.0</ele><time>2026-04-06T08:00:11.929Z</time></trkpt><trkpt lat="37.1562025" lon="14.8992569"><ele>475.00000000000006</ele><time>2026-04-06T08:00:19.938Z</time></trkpt><trkpt lat="37.1561419" lon="14.8992175"><ele>475.0</ele><time>2026-04-06T08:00:26.854Z</time></trkpt><trkpt lat="37.1560936" lon="14.8991595"><ele>475.0</ele><time>2026-04-06T08:00:34.914Z</time></trkpt><trkpt lat="37.156048" lon="14.8990971"><ele>475.28571428571433</ele><time>2026-04-06T08:00:41.881Z</time></trkpt><trkpt lat="37.1559791" lon="14.8991016"><ele>475.5714285714286</ele><time>2026-04-06T08:00:51.935Z</time></trkpt><trkpt lat="37.1559229" lon="14.899154"><ele>475.8571428571429</ele><time>2026-04-06T08:00:58.937Z</time></trkpt><trkpt lat="37.1558529" lon="14.8991413"><ele>476.1428571428571</ele><time>2026-04-06T08:01:07.882Z</time></trkpt><trkpt lat="37.1557954" lon="14.8991056"><ele>476.4285714285714</ele><time>2026-04-06T08:01:14.953Z</time></trkpt><trkpt lat="37.1557345" lon="14.899072"><ele>476.71428571428567</ele><time>2026-04-06T08:01:24.938Z</time></trkpt><trkpt lat="37.1556603" lon="14.8990059"><ele>477.0</ele><time>2026-04-06T08:05:18.934Z</time></trkpt><trkpt lat="37.1555991" lon="14.898959"><ele>477.0</ele><time>2026-04-06T08:05:23.824Z</time></trkpt><trkpt lat="37.1555638" lon="14.8988932"><ele>476.99999999999994</ele><time>2026-04-06T08:05:29.958Z</time></trkpt><trkpt lat="37.1555399" lon="14.8988188"><ele>477.0</ele><time>2026-04-06T08:05:37.965Z</time></trkpt><trkpt lat="37.1554859" lon="14.8987747"><ele>477.0</ele><time>2026-04-06T08:05:44.934Z</time></trkpt><trkpt lat="37.1554229" lon="14.8987467"><ele>476.99999999999994</ele><time>2026-04-06T08:05:53.944Z</time></trkpt><trkpt lat="37.1553733" lon="14.8988064"><ele>477.0</ele><time>2026-04-06T08:06:00.949Z</time></trkpt><trkpt lat="37.1553569" lon="14.8988863"><ele>477.0</ele><time>2026-04-06T08:06:27.005Z</time></trkpt><trkpt lat="37.1552929" lon="14.8989358"><ele>477.0</ele><time>2026-04-06T08:06:33.917Z</time></trkpt><trkpt lat="37.1552706" lon="14.89901"><ele>476.99999999999994</ele><time>2026-04-06T08:06:41.925Z</time></trkpt><trkpt lat="37.1552335" lon="14.8990759"><ele>477.0</ele><time>2026-04-06T08:06:48.893Z</time></trkpt><trkpt lat="37.1551933" lon="14.8991505"><ele>477.0</ele><time>2026-04-06T08:06:56.864Z</time></trkpt><trkpt lat="37.1551558" lon="14.8992174"><ele>476.99999999999994</ele><time>2026-04-06T08:07:07.926Z</time></trkpt><trkpt lat="37.1551066" lon="14.8992793"><ele>477.0</ele><time>2026-04-06T08:07:18.949Z</time></trkpt><trkpt lat="37.1550474" lon="14.899327"><ele>477.0</ele><time>2026-04-06T08:07:25.917Z</time></trkpt><trkpt lat="37.1549823" lon="14.8993542"><ele>476.85714285714283</ele><time>2026-04-06T08:07:33.926Z</time></trkpt><trkpt lat="37.1549191" lon="14.8993703"><ele>476.71428571428567</ele><time>2026-04-06T08:07:42.765Z</time></trkpt><trkpt lat="37.154847" lon="14.8993883"><ele>476.57142857142856</ele><time>2026-04-06T08:07:49.942Z</time></trkpt><trkpt lat="37.1547806" lon="14.8994017"><ele>476.42857142857144</ele><time>2026-04-06T08:07:57.949Z</time></trkpt><trkpt lat="37.1547098" lon="14.8994101"><ele>476.2857142857143</ele><time>2026-04-06T08:08:04.917Z</time></trkpt><trkpt lat="37.1546445" lon="14.8994174"><ele>476.1428571428571</ele><time>2026-04-06T08:08:09.91Z</time></trkpt><trkpt lat="37.1545805" lon="14.8994491"><ele>476.0</ele><time>2026-04-06T08:08:15.941Z</time></trkpt><trkpt lat="37.1545194" lon="14.8994824"><ele>476.0</ele><time>2026-04-06T08:08:22.909Z</time></trkpt><trkpt lat="37.1544559" lon="14.8995108"><ele>476.0</ele><time>2026-04-06T08:08:29.786Z</time></trkpt><trkpt lat="37.1543862" lon="14.8995257"><ele>476.0</ele><time>2026-04-06T08:08:37.885Z</time></trkpt><trkpt lat="37.154315" lon="14.8995283"><ele>476.0</ele><time>2026-04-06T08:08:44.958Z</time></trkpt><trkpt lat="37.1542483" lon="14.8995424"><ele>476.0</ele><time>2026-04-06T08:08:50.886Z</time></trkpt><trkpt lat="37.1541795" lon="14.8995256"><ele>476.0</ele><time>2026-04-06T08:08:57.957Z</time></trkpt><trkpt lat="37.1541105" lon="14.8995087"><ele>476.0</ele><time>2026-04-06T08:09:05.861Z</time></trkpt><trkpt lat="37.1540392" lon="14.8994973"><ele>475.8571428571429</ele><time>2026-04-06T08:09:12.948Z</time></trkpt><trkpt lat="37.1539661" lon="14.8994934"><ele>475.7142857142857</ele><time>2026-04-06T08:09:18.965Z</time></trkpt><trkpt lat="37.1539014" lon="14.8995105"><ele>475.57142857142856</ele><time>2026-04-06T08:09:23.957Z</time></trkpt><trkpt lat="37.1538373" lon="14.8995247"><ele>475.42857142857144</ele><time>2026-04-06T08:09:29.885Z</time></trkpt><trkpt lat="37.1537698" lon="14.8995445"><ele>475.28571428571433</ele><time>2026-04-06T08:09:36.107Z</time></trkpt><trkpt lat="37.1537022" lon="14.8995532"><ele>475.14285714285717</ele><time>2026-04-06T08:09:42.667Z</time></trkpt><trkpt lat="37.1536302" lon="14.8995649"><ele>475.0</ele><time>2026-04-06T08:09:47.877Z</time></trkpt><trkpt lat="37.1535609" lon="14.8995597"><ele>475.0</ele><time>2026-04-06T08:09:54.95Z</time></trkpt><trkpt lat="37.1534943" lon="14.8995662"><ele>475.00000000000006</ele><time>2026-04-06T08:10:01.918Z</time></trkpt><trkpt lat="37.1534316" lon="14.8995533"><ele>475.0</ele><time>2026-04-06T08:10:08.885Z</time></trkpt><trkpt lat="37.1533625" lon="14.8995456"><ele>475.0</ele><time>2026-04-06T08:10:16.906Z</time></trkpt><trkpt lat="37.1533025" lon="14.8994956"><ele>475.00000000000006</ele><time>2026-04-06T08:11:13.885Z</time></trkpt><trkpt lat="37.1532396" lon="14.8994779"><ele>475.0</ele><time>2026-04-06T08:11:38.95Z</time></trkpt><trkpt lat="37.1531766" lon="14.8994387"><ele>475.0</ele><time>2026-04-06T08:11:45.917Z</time></trkpt><trkpt lat="37.1531118" lon="14.8994053"><ele>474.42857142857144</ele><time>2026-04-06T08:11:54.987Z</time></trkpt><trkpt lat="37.1530519" lon="14.8993769"><ele>473.8571428571429</ele><time>2026-04-06T08:12:03.885Z</time></trkpt><trkpt lat="37.1529894" lon="14.8993405"><ele>473.28571428571433</ele><time>2026-04-06T08:12:09.941Z</time></trkpt><trkpt lat="37.1529274" lon="14.899303"><ele>472.7142857142858</ele><time>2026-04-06T08:12:17.846Z</time></trkpt><trkpt lat="37.1528631" lon="14.8992782"><ele>472.14285714285717</ele><time>2026-04-06T08:12:24.852Z</time></trkpt><trkpt lat="37.1528049" lon="14.8992408"><ele>471.57142857142867</ele><time>2026-04-06T08:12:30.95Z</time></trkpt><trkpt lat="37.1527471" lon="14.8992071"><ele>471.00000000000006</ele><time>2026-04-06T08:12:36.877Z</time></trkpt><trkpt lat="37.1526806" lon="14.8991608"><ele>472.57142857142867</ele><time>2026-04-06T08:12:44.885Z</time></trkpt><trkpt lat="37.1526192" lon="14.8991226"><ele>474.14285714285717</ele><time>2026-04-06T08:12:52.927Z</time></trkpt><trkpt lat="37.1525498" lon="14.8991016"><ele>475.7142857142858</ele><time>2026-04-06T08:13:01.942Z</time></trkpt><trkpt lat="37.1524807" lon="14.8990729"><ele>477.28571428571433</ele><time>2026-04-06T08:13:11.926Z</time></trkpt><trkpt lat="37.1524215" lon="14.8990393"><ele>478.8571428571429</ele><time>2026-04-06T08:13:19.846Z</time></trkpt><trkpt lat="37.1523599" lon="14.8990117"><ele>480.42857142857144</ele><time>2026-04-06T08:13:25.966Z</time></trkpt><trkpt lat="37.1522927" lon="14.8989877"><ele>482.0</ele><time>2026-04-06T08:13:33.974Z</time></trkpt><trkpt lat="37.1522278" lon="14.8989716"><ele>482.0</ele><time>2026-04-06T08:13:43.853Z</time></trkpt><trkpt lat="37.1521527" lon="14.8989418"><ele>482.00000000000006</ele><time>2026-04-06T08:13:54.873Z</time></trkpt><trkpt lat="37.1520885" lon="14.8989079"><ele>482.0</ele><time>2026-04-06T08:13:58.93Z</time></trkpt><trkpt lat="37.1520197" lon="14.898898"><ele>482.0</ele><time>2026-04-06T08:14:04.961Z</time></trkpt><trkpt lat="37.1519572" lon="14.8988835"><ele>482.00000000000006</ele><time>2026-04-06T08:14:09.953Z</time></trkpt><trkpt lat="37.151894" lon="14.8988599"><ele>482.0</ele><time>2026-04-06T08:14:14.945Z</time></trkpt><trkpt lat="37.1518236" lon="14.8988474"><ele>482.0</ele><time>2026-04-06T08:14:20.811Z</time></trkpt><trkpt lat="37.151758" lon="14.8988224"><ele>482.0</ele><time>2026-04-06T08:14:26.912Z</time></trkpt><trkpt lat="37.1516905" lon="14.8987915"><ele>482.00000000000006</ele><time>2026-04-06T08:14:33.978Z</time></trkpt><trkpt lat="37.1516323" lon="14.8987596"><ele>482.0</ele><time>2026-04-06T08:14:40.945Z</time></trkpt><trkpt lat="37.1515679" lon="14.8987204"><ele>482.0</ele><time>2026-04-06T08:14:46.977Z</time></trkpt><trkpt lat="37.1515056" lon="14.8986772"><ele>482.00000000000006</ele><time>2026-04-06T08:14:51.951Z</time></trkpt><trkpt lat="37.1514528" lon="14.8986321"><ele>482.0</ele><time>2026-04-06T08:14:57.897Z</time></trkpt><trkpt lat="37.1513898" lon="14.8985944"><ele>482.0</ele><time>2026-04-06T08:15:03.93Z</time></trkpt><trkpt lat="37.1513239" lon="14.8985705"><ele>482.0</ele><time>2026-04-06T08:15:10.897Z</time></trkpt><trkpt lat="37.1512585" lon="14.8985384"><ele>482.00000000000006</ele><time>2026-04-06T08:15:16.972Z</time></trkpt><trkpt lat="37.1512013" lon="14.8984884"><ele>482.0</ele><time>2026-04-06T08:15:23.898Z</time></trkpt><trkpt lat="37.1511426" lon="14.8984457"><ele>482.0</ele><time>2026-04-06T08:15:29.929Z</time></trkpt><trkpt lat="37.1510764" lon="14.8984139"><ele>482.00000000000006</ele><time>2026-04-06T08:15:37.911Z</time></trkpt><trkpt lat="37.1510194" lon="14.8983723"><ele>482.0</ele><time>2026-04-06T08:15:45.89Z</time></trkpt><trkpt lat="37.1509538" lon="14.8983718"><ele>482.0</ele><time>2026-04-06T08:15:52.914Z</time></trkpt><trkpt lat="37.150906" lon="14.8983192"><ele>483.8571428571429</ele><time>2026-04-06T08:15:58.941Z</time></trkpt><trkpt lat="37.1508394" lon="14.8983242"><ele>485.7142857142858</ele><time>2026-04-06T08:16:05.91Z</time></trkpt><trkpt lat="37.1507776" lon="14.898299"><ele>487.57142857142856</ele><time>2026-04-06T08:16:12.877Z</time></trkpt><trkpt lat="37.1507095" lon="14.8982622"><ele>489.42857142857144</ele><time>2026-04-06T08:16:20.886Z</time></trkpt><trkpt lat="37.150637" lon="14.8982473"><ele>491.2857142857143</ele><time>2026-04-06T08:16:27.854Z</time></trkpt><trkpt lat="37.1505723" lon="14.8982071"><ele>493.1428571428571</ele><time>2026-04-06T08:16:33.885Z</time></trkpt><trkpt lat="37.1505104" lon="14.8981908"><ele>494.99999999999994</ele><time>2026-04-06T08:16:40.853Z</time></trkpt><trkpt lat="37.1504433" lon="14.8981848"><ele>494.99999999999994</ele><time>2026-04-06T08:16:47.926Z</time></trkpt><trkpt lat="37.1503726" lon="14.8981956"><ele>495.0</ele><time>2026-04-06T08:16:54.893Z</time></trkpt><trkpt lat="37.150301" lon="14.8981929"><ele>494.99999999999994</ele><time>2026-04-06T08:17:01.861Z</time></trkpt><trkpt lat="37.1502362" lon="14.8982023"><ele>494.99999999999994</ele><time>2026-04-06T08:17:06.853Z</time></trkpt><trkpt lat="37.1501656" lon="14.8981969"><ele>495.0</ele><time>2026-04-06T08:17:13.845Z</time></trkpt><trkpt lat="37.1500974" lon="14.8981819"><ele>494.99999999999994</ele><time>2026-04-06T08:17:20.92Z</time></trkpt><trkpt lat="37.1500385" lon="14.8981415"><ele>494.99999999999994</ele><time>2026-04-06T08:17:27.861Z</time></trkpt><trkpt lat="37.1499936" lon="14.8980787"><ele>494.99999999999994</ele><time>2026-04-06T08:17:34.934Z</time></trkpt><trkpt lat="37.1499445" lon="14.8980233"><ele>495.0</ele><time>2026-04-06T08:17:41.902Z</time></trkpt><trkpt lat="37.1499079" lon="14.8979571"><ele>494.99999999999994</ele><time>2026-04-06T08:17:51.886Z</time></trkpt><trkpt lat="37.1498439" lon="14.8979138"><ele>494.99999999999994</ele><time>2026-04-06T08:17:57.917Z</time></trkpt><trkpt lat="37.1497896" lon="14.897856"><ele>495.0</ele><time>2026-04-06T08:18:03.96Z</time></trkpt><trkpt lat="37.1497369" lon="14.8978114"><ele>494.99999999999994</ele><time>2026-04-06T08:18:11.957Z</time></trkpt><trkpt lat="37.1496806" lon="14.897754"><ele>494.99999999999994</ele><time>2026-04-06T08:18:20.901Z</time></trkpt><trkpt lat="37.1496274" lon="14.8977112"><ele>494.5714285714285</ele><time>2026-04-06T08:18:25.893Z</time></trkpt><trkpt lat="37.1495729" lon="14.8976465"><ele>494.1428571428571</ele><time>2026-04-06T08:18:31.925Z</time></trkpt><trkpt lat="37.149522" lon="14.8975873"><ele>493.7142857142857</ele><time>2026-04-06T08:18:38.893Z</time></trkpt><trkpt lat="37.1494732" lon="14.8975351"><ele>493.2857142857143</ele><time>2026-04-06T08:18:45.966Z</time></trkpt><trkpt lat="37.1494174" lon="14.8974895"><ele>492.8571428571429</ele><time>2026-04-06T08:18:52.934Z</time></trkpt><trkpt lat="37.1493559" lon="14.8974445"><ele>492.4285714285715</ele><time>2026-04-06T08:18:58.965Z</time></trkpt><trkpt lat="37.149298" lon="14.8973908"><ele>492.00000000000006</ele><time>2026-04-06T08:19:05.933Z</time></trkpt><trkpt lat="37.14924" lon="14.8973441"><ele>492.8571428571429</ele><time>2026-04-06T08:19:13.941Z</time></trkpt><trkpt lat="37.1491815" lon="14.8973003"><ele>493.7142857142857</ele><time>2026-04-06T08:19:19.973Z</time></trkpt><trkpt lat="37.1491226" lon="14.8972689"><ele>494.57142857142856</ele><time>2026-04-06T08:19:25.901Z</time></trkpt><trkpt lat="37.1490611" lon="14.8972288"><ele>495.42857142857144</ele><time>2026-04-06T08:19:34.949Z</time></trkpt><trkpt lat="37.1489956" lon="14.8972025"><ele>496.2857142857142</ele><time>2026-04-06T08:19:42.523Z</time></trkpt><trkpt lat="37.1489315" lon="14.8972043"><ele>497.1428571428571</ele><time>2026-04-06T08:19:48.885Z</time></trkpt><trkpt lat="37.1488678" lon="14.8971887"><ele>498.0</ele><time>2026-04-06T08:19:54.917Z</time></trkpt><trkpt lat="37.148795" lon="14.8971931"><ele>498.0</ele><time>2026-04-06T08:20:01.885Z</time></trkpt><trkpt lat="37.1487311" lon="14.8971616"><ele>497.99999999999994</ele><time>2026-04-06T08:20:08.957Z</time></trkpt><trkpt lat="37.1486789" lon="14.8971076"><ele>498.0</ele><time>2026-04-06T08:20:14.886Z</time></trkpt><trkpt lat="37.1486197" lon="14.8970571"><ele>498.0</ele><time>2026-04-06T08:20:21.957Z</time></trkpt><trkpt lat="37.1485585" lon="14.8970197"><ele>497.99999999999994</ele><time>2026-04-06T08:20:27.886Z</time></trkpt><trkpt lat="37.1484952" lon="14.8970097"><ele>498.0</ele><time>2026-04-06T08:20:34.86Z</time></trkpt><trkpt lat="37.1484295" lon="14.8969919"><ele>498.0</ele><time>2026-04-06T08:20:41.926Z</time></trkpt><trkpt lat="37.1483536" lon="14.896986"><ele>498.0</ele><time>2026-04-06T08:20:49.934Z</time></trkpt><trkpt lat="37.1482854" lon="14.8969774"><ele>497.99999999999994</ele><time>2026-04-06T08:20:56.901Z</time></trkpt><trkpt lat="37.1482201" lon="14.8969566"><ele>498.0</ele><time>2026-04-06T08:21:03.869Z</time></trkpt><trkpt lat="37.1481499" lon="14.8969644"><ele>498.0</ele><time>2026-04-06T08:21:10.941Z</time></trkpt><trkpt lat="37.1480846" lon="14.8969699"><ele>497.99999999999994</ele><time>2026-04-06T08:21:16.9Z</time></trkpt><trkpt lat="37.1480174" lon="14.8969679"><ele>498.0</ele><time>2026-04-06T08:21:24.877Z</time></trkpt><trkpt lat="37.1479543" lon="14.8969877"><ele>498.0</ele><time>2026-04-06T08:21:31.949Z</time></trkpt><trkpt lat="37.1478907" lon="14.8969921"><ele>499.2857142857143</ele><time>2026-04-06T08:21:38.959Z</time></trkpt><trkpt lat="37.1478254" lon="14.8969921"><ele>500.57142857142856</ele><time>2026-04-06T08:21:45.886Z</time></trkpt><trkpt lat="37.1477565" lon="14.8970009"><ele>501.85714285714283</ele><time>2026-04-06T08:21:51.917Z</time></trkpt><trkpt lat="37.1476908" lon="14.8970348"><ele>503.1428571428571</ele><time>2026-04-06T08:22:00.965Z</time></trkpt><trkpt lat="37.14763" lon="14.897081"><ele>504.42857142857144</ele><time>2026-04-06T08:22:08.973Z</time></trkpt><trkpt lat="37.147565" lon="14.8970942"><ele>505.71428571428567</ele><time>2026-04-06T08:22:17.479Z</time></trkpt><trkpt lat="37.1475009" lon="14.8971203"><ele>507.0</ele><time>2026-04-06T08:22:27.902Z</time></trkpt><trkpt lat="37.1474399" lon="14.8971632"><ele>507.0</ele><time>2026-04-06T08:23:10.958Z</time></trkpt><trkpt lat="37.147383" lon="14.8972034"><ele>507.0</ele><time>2026-04-06T08:23:17.925Z</time></trkpt><trkpt lat="37.1473241" lon="14.897241"><ele>507.0</ele><time>2026-04-06T08:23:25.844Z</time></trkpt><trkpt lat="37.1472622" lon="14.8972776"><ele>507.0</ele><time>2026-04-06T08:23:35.88Z</time></trkpt><trkpt lat="37.1472093" lon="14.8973244"><ele>507.0</ele><time>2026-04-06T08:23:46.844Z</time></trkpt><trkpt lat="37.1471415" lon="14.8973467"><ele>507.0</ele><time>2026-04-06T08:35:33.933Z</time></trkpt><trkpt lat="37.1470768" lon="14.8973526"><ele>507.0</ele><time>2026-04-06T08:35:39.965Z</time></trkpt><trkpt lat="37.1470054" lon="14.8973598"><ele>509.1428571428571</ele><time>2026-04-06T08:35:47.891Z</time></trkpt><trkpt lat="37.1469422" lon="14.8973394"><ele>511.28571428571433</ele><time>2026-04-06T08:35:53.901Z</time></trkpt><trkpt lat="37.1468769" lon="14.8973613"><ele>513.4285714285714</ele><time>2026-04-06T08:36:37.893Z</time></trkpt><trkpt lat="37.1468091" lon="14.8973704"><ele>515.5714285714286</ele><time>2026-04-06T08:36:44.965Z</time></trkpt><trkpt lat="37.1467451" lon="14.8973831"><ele>517.7142857142857</ele><time>2026-04-06T08:37:05.87Z</time></trkpt><trkpt lat="37.1466795" lon="14.8973853"><ele>519.8571428571429</ele><time>2026-04-06T08:37:15.957Z</time></trkpt><trkpt lat="37.1466295" lon="14.8973271"><ele>522.0</ele><time>2026-04-06T08:37:24.902Z</time></trkpt><trkpt lat="37.1465774" lon="14.8972663"><ele>524.2857142857143</ele><time>2026-04-06T08:37:29.894Z</time></trkpt><trkpt lat="37.1465307" lon="14.8972017"><ele>526.5714285714286</ele><time>2026-04-06T08:37:38.931Z</time></trkpt><trkpt lat="37.1464823" lon="14.8971463"><ele>528.8571428571429</ele><time>2026-04-06T08:37:47.99Z</time></trkpt><trkpt lat="37.146418" lon="14.8971514"><ele>531.1428571428571</ele><time>2026-04-06T08:37:55.893Z</time></trkpt><trkpt lat="37.1463912" lon="14.8972259"><ele>533.4285714285714</ele><time>2026-04-06T08:38:03.901Z</time></trkpt><trkpt lat="37.1464165" lon="14.8973004"><ele>535.7142857142858</ele><time>2026-04-06T08:38:10.973Z</time></trkpt><trkpt lat="37.1464377" lon="14.8973787"><ele>538.0</ele><time>2026-04-06T08:38:17.941Z</time></trkpt><trkpt lat="37.1464433" lon="14.8974587"><ele>538.0</ele><time>2026-04-06T08:38:23.974Z</time></trkpt><trkpt lat="37.1464288" lon="14.8975464"><ele>538.0</ele><time>2026-04-06T08:38:30.652Z</time></trkpt><trkpt lat="37.1464155" lon="14.8976319"><ele>538.0</ele><time>2026-04-06T08:38:36.869Z</time></trkpt><trkpt lat="37.1464029" lon="14.8977139"><ele>538.0</ele><time>2026-04-06T08:38:43.941Z</time></trkpt><trkpt lat="37.1463674" lon="14.8977793"><ele>538.0</ele><time>2026-04-06T08:38:50.952Z</time></trkpt><trkpt lat="37.1463217" lon="14.8978367"><ele>538.0</ele><time>2026-04-06T08:38:59.958Z</time></trkpt><trkpt lat="37.1462582" lon="14.8978628"><ele>538.0</ele><time>2026-04-06T08:39:07.852Z</time></trkpt><trkpt lat="37.146202" lon="14.8979022"><ele>536.5714285714286</ele><time>2026-04-06T08:39:14.934Z</time></trkpt><trkpt lat="37.1461672" lon="14.8979686"><ele>535.1428571428572</ele><time>2026-04-06T08:39:22.941Z</time></trkpt><trkpt lat="37.1461568" lon="14.8980547"><ele>533.7142857142858</ele><time>2026-04-06T08:39:30.95Z</time></trkpt><trkpt lat="37.1461017" lon="14.8981467"><ele>532.2857142857143</ele><time>2026-04-06T08:40:39.842Z</time></trkpt><trkpt lat="37.1460633" lon="14.89821"><ele>530.8571428571429</ele><time>2026-04-06T08:40:46.842Z</time></trkpt><trkpt lat="37.1460252" lon="14.8982825"><ele>529.4285714285714</ele><time>2026-04-06T08:40:59.952Z</time></trkpt><trkpt lat="37.1459922" lon="14.8983528"><ele>528.0</ele><time>2026-04-06T08:41:05.901Z</time></trkpt><trkpt lat="37.1459615" lon="14.89843"><ele>527.4285714285714</ele><time>2026-04-06T08:41:13.909Z</time></trkpt><trkpt lat="37.1459146" lon="14.8984858"><ele>526.8571428571429</ele><time>2026-04-06T08:41:21.917Z</time></trkpt><trkpt lat="37.1458531" lon="14.8985487"><ele>526.2857142857143</ele><time>2026-04-06T08:41:28.935Z</time></trkpt><trkpt lat="37.1458113" lon="14.8986239"><ele>525.7142857142858</ele><time>2026-04-06T08:41:33.874Z</time></trkpt><trkpt lat="37.1457747" lon="14.8986961"><ele>525.1428571428572</ele><time>2026-04-06T08:41:41.886Z</time></trkpt><trkpt lat="37.1457318" lon="14.8987689"><ele>524.5714285714286</ele><time>2026-04-06T08:41:47.917Z</time></trkpt><trkpt lat="37.1456872" lon="14.8988323"><ele>524.0</ele><time>2026-04-06T08:41:53.117Z</time></trkpt><trkpt lat="37.1456261" lon="14.8988675"><ele>524.0</ele><time>2026-04-06T08:41:59.656Z</time></trkpt><trkpt lat="37.1455699" lon="14.8989072"><ele>524.0</ele><time>2026-04-06T08:42:26.917Z</time></trkpt><trkpt lat="37.1455023" lon="14.8988663"><ele>524.0</ele><time>2026-04-06T08:42:33.972Z</time></trkpt><trkpt lat="37.1454523" lon="14.8988078"><ele>524.0</ele><time>2026-04-06T08:42:39.917Z</time></trkpt><trkpt lat="37.1453988" lon="14.8987549"><ele>524.0</ele><time>2026-04-06T08:42:48.836Z</time></trkpt><trkpt lat="37.145333" lon="14.8987268"><ele>524.0</ele><time>2026-04-06T08:42:54.956Z</time></trkpt><trkpt lat="37.1453007" lon="14.8987985"><ele>524.0</ele><time>2026-04-06T08:43:18.918Z</time></trkpt><trkpt lat="37.1453096" lon="14.89872"><ele>524.0</ele><time>2026-04-06T08:47:05.857Z</time></trkpt><trkpt lat="37.1452944" lon="14.8988102"><ele>524.0</ele><time>2026-04-06T08:48:44.887Z</time></trkpt><trkpt lat="37.145257" lon="14.8988773"><ele>524.0</ele><time>2026-04-06T08:48:51.937Z</time></trkpt><trkpt lat="37.145262" lon="14.8989645"><ele>524.0</ele><time>2026-04-06T08:48:59.945Z</time></trkpt><trkpt lat="37.1452741" lon="14.8990454"><ele>524.0</ele><time>2026-04-06T08:49:06.913Z</time></trkpt><trkpt lat="37.1452706" lon="14.8991277"><ele>524.0</ele><time>2026-04-06T08:49:16.897Z</time></trkpt><trkpt lat="37.1452553" lon="14.8992076"><ele>524.0</ele><time>2026-04-06T08:49:23.97Z</time></trkpt><trkpt lat="37.145228" lon="14.8992826"><ele>524.2857142857143</ele><time>2026-04-06T08:49:31.888Z</time></trkpt><trkpt lat="37.1451644" lon="14.8993237"><ele>524.5714285714287</ele><time>2026-04-06T08:49:43.933Z</time></trkpt><trkpt lat="37.145106" lon="14.8993566"><ele>524.8571428571429</ele><time>2026-04-06T08:49:50.901Z</time></trkpt><trkpt lat="37.1450398" lon="14.89937"><ele>525.1428571428571</ele><time>2026-04-06T08:50:10.973Z</time></trkpt><trkpt lat="37.1449685" lon="14.8993929"><ele>525.4285714285713</ele><time>2026-04-06T08:50:16.901Z</time></trkpt><trkpt lat="37.1449071" lon="14.8994475"><ele>525.7142857142857</ele><time>2026-04-06T08:50:23.951Z</time></trkpt><trkpt lat="37.1448216" lon="14.899469"><ele>526.0</ele><time>2026-04-06T08:50:45.918Z</time></trkpt><trkpt lat="37.1447593" lon="14.8995196"><ele>527.4285714285714</ele><time>2026-04-06T08:50:51.949Z</time></trkpt><trkpt lat="37.1447429" lon="14.8995959"><ele>528.8571428571428</ele><time>2026-04-06T08:50:57.878Z</time></trkpt><trkpt lat="37.1447212" lon="14.8996706"><ele>530.2857142857142</ele><time>2026-04-06T08:51:03.989Z</time></trkpt><trkpt lat="37.1447254" lon="14.8997505"><ele>531.7142857142857</ele><time>2026-04-06T08:51:10.878Z</time></trkpt><trkpt lat="37.1447346" lon="14.8998344"><ele>533.1428571428571</ele><time>2026-04-06T08:51:16.91Z</time></trkpt><trkpt lat="37.1447166" lon="14.8999145"><ele>534.5714285714286</ele><time>2026-04-06T08:51:43.949Z</time></trkpt><trkpt lat="37.1446964" lon="14.8999932"><ele>536.0</ele><time>2026-04-06T08:51:51.957Z</time></trkpt><trkpt lat="37.1447073" lon="14.9000762"><ele>536.0</ele><time>2026-04-06T08:51:58.926Z</time></trkpt><trkpt lat="37.1446796" lon="14.9001479"><ele>536.0</ele><time>2026-04-06T08:52:05.894Z</time></trkpt><trkpt lat="37.1446258" lon="14.9001958"><ele>536.0</ele><time>2026-04-06T08:52:12.812Z</time></trkpt><trkpt lat="37.1445608" lon="14.9002192"><ele>536.0</ele><time>2026-04-06T08:52:20.974Z</time></trkpt><trkpt lat="37.1444922" lon="14.9002306"><ele>536.0</ele><time>2026-04-06T08:52:32.933Z</time></trkpt><trkpt lat="37.1444196" lon="14.9002238"><ele>536.0</ele><time>2026-04-06T08:52:41.877Z</time></trkpt><trkpt lat="37.1443554" lon="14.9002338"><ele>536.0</ele><time>2026-04-06T08:52:49.885Z</time></trkpt><trkpt lat="37.1442924" lon="14.9002561"><ele>536.0</ele><time>2026-04-06T08:52:57.894Z</time></trkpt><trkpt lat="37.1442218" lon="14.9002624"><ele>536.0</ele><time>2026-04-06T08:53:08.951Z</time></trkpt><trkpt lat="37.1441561" lon="14.9002631"><ele>536.0</ele><time>2026-04-06T08:53:15.885Z</time></trkpt><trkpt lat="37.1440926" lon="14.9002988"><ele>536.0</ele><time>2026-04-06T08:53:22.957Z</time></trkpt><trkpt lat="37.1440459" lon="14.9003571"><ele>536.0</ele><time>2026-04-06T08:53:30.965Z</time></trkpt><trkpt lat="37.1440388" lon="14.90044"><ele>536.0</ele><time>2026-04-06T08:53:37.934Z</time></trkpt><trkpt lat="37.1440397" lon="14.9005264"><ele>536.0</ele><time>2026-04-06T08:53:52.909Z</time></trkpt><trkpt lat="37.1440528" lon="14.9006041"><ele>536.0</ele><time>2026-04-06T08:54:00.213Z</time></trkpt><trkpt lat="37.1440787" lon="14.9006826"><ele>536.0</ele><time>2026-04-06T08:54:07.886Z</time></trkpt><trkpt lat="37.1441215" lon="14.9007504"><ele>536.0</ele><time>2026-04-06T08:54:15.971Z</time></trkpt><trkpt lat="37.144182" lon="14.9007263"><ele>536.0</ele><time>2026-04-06T08:56:12.897Z</time></trkpt><trkpt lat="37.1441565" lon="14.9006482"><ele>536.0</ele><time>2026-04-06T08:58:18.945Z</time></trkpt><trkpt lat="37.1441543" lon="14.9007302"><ele>536.0</ele><time>2026-04-06T08:58:50.974Z</time></trkpt><trkpt lat="37.1442624" lon="14.9008071"><ele>536.0</ele><time>2026-04-06T09:02:11.898Z</time></trkpt><trkpt lat="37.1443228" lon="14.9008353"><ele>536.0</ele><time>2026-04-06T09:02:15.849Z</time></trkpt><trkpt lat="37.1443722" lon="14.9008947"><ele>536.0</ele><time>2026-04-06T09:02:25.937Z</time></trkpt><trkpt lat="37.1444118" lon="14.9009759"><ele>536.0</ele><time>2026-04-06T09:02:42.889Z</time></trkpt><trkpt lat="37.1444423" lon="14.9010515"><ele>536.0</ele><time>2026-04-06T09:02:51.938Z</time></trkpt><trkpt lat="37.1444639" lon="14.9011283"><ele>536.0</ele><time>2026-04-06T09:02:58.905Z</time></trkpt><trkpt lat="37.144486" lon="14.9012096"><ele>536.0</ele><time>2026-04-06T09:03:09.923Z</time></trkpt><trkpt lat="37.1445272" lon="14.9012723"><ele>538.0</ele><time>2026-04-06T09:03:19.914Z</time></trkpt><trkpt lat="37.1445524" lon="14.901349"><ele>540.0</ele><time>2026-04-06T09:03:28.961Z</time></trkpt><trkpt lat="37.1445924" lon="14.9014146"><ele>542.0</ele><time>2026-04-06T09:03:39.882Z</time></trkpt><trkpt lat="37.1446553" lon="14.9014249"><ele>544.0</ele><time>2026-04-06T09:03:49.97Z</time></trkpt><trkpt lat="37.1447206" lon="14.9013879"><ele>546.0</ele><time>2026-04-06T09:04:02.969Z</time></trkpt><trkpt lat="37.1447758" lon="14.9013464"><ele>548.0</ele><time>2026-04-06T09:04:10.977Z</time></trkpt><trkpt lat="37.1448448" lon="14.9013392"><ele>550.0</ele><time>2026-04-06T09:04:20.961Z</time></trkpt><trkpt lat="37.1449098" lon="14.9013332"><ele>551.0</ele><time>2026-04-06T09:04:27.929Z</time></trkpt><trkpt lat="37.1449795" lon="14.9013479"><ele>552.0</ele><time>2026-04-06T09:04:37.913Z</time></trkpt><trkpt lat="37.1450411" lon="14.9013924"><ele>553.0</ele><time>2026-04-06T09:04:43.945Z</time></trkpt><trkpt lat="37.1451076" lon="14.9014281"><ele>554.0</ele><time>2026-04-06T09:04:50.904Z</time></trkpt><trkpt lat="37.1451629" lon="14.901476"><ele>555.0</ele><time>2026-04-06T09:04:57.986Z</time></trkpt><trkpt lat="37.1452248" lon="14.9015086"><ele>556.0</ele><time>2026-04-06T09:05:05.889Z</time></trkpt><trkpt lat="37.1452865" lon="14.9015427"><ele>557.0</ele><time>2026-04-06T09:05:12.962Z</time></trkpt><trkpt lat="37.1453493" lon="14.9015763"><ele>557.0</ele><time>2026-04-06T09:05:18.993Z</time></trkpt><trkpt lat="37.1454081" lon="14.9016067"><ele>557.0</ele><time>2026-04-06T09:05:26.898Z</time></trkpt><trkpt lat="37.1454618" lon="14.9016514"><ele>557.0</ele><time>2026-04-06T09:05:32.929Z</time></trkpt><trkpt lat="37.1455253" lon="14.9016871"><ele>557.0</ele><time>2026-04-06T09:05:39.897Z</time></trkpt><trkpt lat="37.1455896" lon="14.9017213"><ele>557.0</ele><time>2026-04-06T09:05:48.945Z</time></trkpt><trkpt lat="37.1456478" lon="14.901767"><ele>557.0</ele><time>2026-04-06T09:05:56.954Z</time></trkpt><trkpt lat="37.1457028" lon="14.9018174"><ele>557.0</ele><time>2026-04-06T09:06:04.857Z</time></trkpt><trkpt lat="37.1457736" lon="14.9018431"><ele>557.4285714285714</ele><time>2026-04-06T09:06:14.007Z</time></trkpt><trkpt lat="37.145826" lon="14.9017964"><ele>557.8571428571429</ele><time>2026-04-06T09:06:21.914Z</time></trkpt><trkpt lat="37.1458639" lon="14.90173"><ele>558.2857142857142</ele><time>2026-04-06T09:06:33.873Z</time></trkpt><trkpt lat="37.1458971" lon="14.9016595"><ele>558.7142857142858</ele><time>2026-04-06T09:06:43.961Z</time></trkpt><trkpt lat="37.1459197" lon="14.9015857"><ele>559.1428571428571</ele><time>2026-04-06T09:06:51.97Z</time></trkpt><trkpt lat="37.1459183" lon="14.9014976"><ele>559.5714285714286</ele><time>2026-04-06T09:06:58.937Z</time></trkpt><trkpt lat="37.1459288" lon="14.9014196"><ele>560.0</ele><time>2026-04-06T09:07:06.946Z</time></trkpt><trkpt lat="37.1459263" lon="14.9013373"><ele>560.0</ele><time>2026-04-06T09:07:16.883Z</time></trkpt><trkpt lat="37.1459126" lon="14.9012508"><ele>560.0</ele><time>2026-04-06T09:07:25.873Z</time></trkpt><trkpt lat="37.1459594" lon="14.9011882"><ele>560.0</ele><time>2026-04-06T09:07:35.962Z</time></trkpt><trkpt lat="37.1460155" lon="14.9012253"><ele>560.0</ele><time>2026-04-06T09:07:44.906Z</time></trkpt><trkpt lat="37.1460752" lon="14.9012707"><ele>560.0</ele><time>2026-04-06T09:07:52.914Z</time></trkpt><trkpt lat="37.14613" lon="14.9013211"><ele>560.0</ele><time>2026-04-06T09:08:00.944Z</time></trkpt><trkpt lat="37.1461871" lon="14.9013699"><ele>560.0</ele><time>2026-04-06T09:08:12.985Z</time></trkpt><trkpt lat="37.1462514" lon="14.9013931"><ele>560.0</ele><time>2026-04-06T09:08:20.89Z</time></trkpt><trkpt lat="37.1463021" lon="14.901441"><ele>560.0</ele><time>2026-04-06T09:08:27.944Z</time></trkpt><trkpt lat="37.1463712" lon="14.9014558"><ele>560.0</ele><time>2026-04-06T09:08:38.964Z</time></trkpt><trkpt lat="37.1464451" lon="14.9014597"><ele>560.0</ele><time>2026-04-06T09:08:44.914Z</time></trkpt><trkpt lat="37.1465593" lon="14.9014866"><ele>560.0</ele><time>2026-04-06T09:13:34.866Z</time></trkpt><trkpt lat="37.1466269" lon="14.9015"><ele>560.0</ele><time>2026-04-06T09:13:42.856Z</time></trkpt><trkpt lat="37.146697" lon="14.9014934"><ele>562.1428571428571</ele><time>2026-04-06T09:13:52.961Z</time></trkpt><trkpt lat="37.1467587" lon="14.9014768"><ele>564.2857142857142</ele><time>2026-04-06T09:14:01.906Z</time></trkpt><trkpt lat="37.1468285" lon="14.9014946"><ele>566.4285714285714</ele><time>2026-04-06T09:14:09.913Z</time></trkpt><trkpt lat="37.1468872" lon="14.9015273"><ele>568.5714285714286</ele><time>2026-04-06T09:14:16.881Z</time></trkpt><trkpt lat="37.1469483" lon="14.9015666"><ele>570.7142857142857</ele><time>2026-04-06T09:14:24.889Z</time></trkpt><trkpt lat="37.1469823" lon="14.9016359"><ele>572.8571428571429</ele><time>2026-04-06T09:14:35.913Z</time></trkpt><trkpt lat="37.1469989" lon="14.9017122"><ele>575.0</ele><time>2026-04-06T09:14:45.897Z</time></trkpt><trkpt lat="37.1469724" lon="14.9017915"><ele>576.5714285714286</ele><time>2026-04-06T09:14:56.922Z</time></trkpt><trkpt lat="37.1469442" lon="14.9018729"><ele>578.1428571428571</ele><time>2026-04-06T09:15:08.881Z</time></trkpt><trkpt lat="37.1468928" lon="14.901935"><ele>579.7142857142857</ele><time>2026-04-06T09:15:17.9Z</time></trkpt><trkpt lat="37.1468616" lon="14.9020561"><ele>581.2857142857142</ele><time>2026-04-06T09:15:36.853Z</time></trkpt><trkpt lat="37.1468424" lon="14.9021407"><ele>582.8571428571429</ele><time>2026-04-06T09:15:44.966Z</time></trkpt><trkpt lat="37.1468349" lon="14.9022203"><ele>584.4285714285713</ele><time>2026-04-06T09:15:54.949Z</time></trkpt><trkpt lat="37.1468348" lon="14.9023042"><ele>586.0</ele><time>2026-04-06T09:16:04.899Z</time></trkpt><trkpt lat="37.146842" lon="14.9023911"><ele>585.9999999999999</ele><time>2026-04-06T09:16:14.917Z</time></trkpt><trkpt lat="37.146833" lon="14.902473"><ele>586.0</ele><time>2026-04-06T09:16:23.965Z</time></trkpt><trkpt lat="37.1468352" lon="14.9025527"><ele>586.0</ele><time>2026-04-06T09:16:34.886Z</time></trkpt><trkpt lat="37.1468319" lon="14.9026402"><ele>586.0</ele><time>2026-04-06T09:16:44.939Z</time></trkpt><trkpt lat="37.146818" lon="14.9027195"><ele>586.0</ele><time>2026-04-06T09:16:57.973Z</time></trkpt><trkpt lat="37.146803" lon="14.9028135"><ele>585.9999999999999</ele><time>2026-04-06T09:18:06.838Z</time></trkpt><trkpt lat="37.1467748" lon="14.9027402"><ele>586.0</ele><time>2026-04-06T09:18:49.877Z</time></trkpt><trkpt lat="37.1468083" lon="14.9028108"><ele>588.8571428571428</ele><time>2026-04-06T09:19:19.838Z</time></trkpt><trkpt lat="37.1468503" lon="14.9028843"><ele>591.7142857142857</ele><time>2026-04-06T09:19:29.918Z</time></trkpt><trkpt lat="37.1468792" lon="14.9029549"><ele>594.5714285714286</ele><time>2026-04-06T09:19:40.941Z</time></trkpt><trkpt lat="37.1469214" lon="14.9030189"><ele>597.4285714285713</ele><time>2026-04-06T09:19:51.862Z</time></trkpt><trkpt lat="37.1469524" lon="14.9030887"><ele>600.2857142857142</ele><time>2026-04-06T09:20:01.949Z</time></trkpt><trkpt lat="37.1469964" lon="14.9031481"><ele>603.1428571428571</ele><time>2026-04-06T09:20:10.894Z</time></trkpt><trkpt lat="37.1470256" lon="14.9032242"><ele>606.0</ele><time>2026-04-06T09:20:21.954Z</time></trkpt><trkpt lat="37.1470727" lon="14.903284"><ele>606.0</ele><time>2026-04-06T09:20:32.941Z</time></trkpt><trkpt lat="37.1471308" lon="14.9033234"><ele>606.0</ele><time>2026-04-06T09:20:42.926Z</time></trkpt><trkpt lat="37.1471918" lon="14.9033628"><ele>606.0</ele><time>2026-04-06T09:20:50.934Z</time></trkpt><trkpt lat="37.1472542" lon="14.9033895"><ele>606.0</ele><time>2026-04-06T09:21:00.915Z</time></trkpt><trkpt lat="37.1473221" lon="14.9034168"><ele>606.0</ele><time>2026-04-06T09:21:09.874Z</time></trkpt><trkpt lat="37.1473794" lon="14.9034606"><ele>606.0</ele><time>2026-04-06T09:21:16.933Z</time></trkpt><trkpt lat="37.1474387" lon="14.9035018"><ele>606.0</ele><time>2026-04-06T09:21:26.918Z</time></trkpt><trkpt lat="37.1474959" lon="14.9035531"><ele>607.2857142857143</ele><time>2026-04-06T09:21:35.966Z</time></trkpt><trkpt lat="37.1475561" lon="14.9035837"><ele>608.5714285714286</ele><time>2026-04-06T09:21:44.909Z</time></trkpt><trkpt lat="37.1476122" lon="14.9036278"><ele>609.8571428571429</ele><time>2026-04-06T09:21:53.853Z</time></trkpt><trkpt lat="37.1476491" lon="14.9036961"><ele>611.1428571428571</ele><time>2026-04-06T09:21:59.989Z</time></trkpt><trkpt lat="37.1476867" lon="14.9037636"><ele>612.4285714285714</ele><time>2026-04-06T09:22:05.918Z</time></trkpt><trkpt lat="37.1476271" lon="14.9038032"><ele>613.7142857142857</ele><time>2026-04-06T09:22:15.898Z</time></trkpt><trkpt lat="37.1475837" lon="14.9037422"><ele>615.0</ele><time>2026-04-06T09:22:26.921Z</time></trkpt><trkpt lat="37.1475357" lon="14.9036862"><ele>615.0</ele><time>2026-04-06T09:22:39.922Z</time></trkpt><trkpt lat="37.147471" lon="14.9036632"><ele>615.0</ele><time>2026-04-06T09:22:49.905Z</time></trkpt><trkpt lat="37.1474004" lon="14.9036655"><ele>615.0</ele><time>2026-04-06T09:23:00.929Z</time></trkpt><trkpt lat="37.1473304" lon="14.9036565"><ele>615.0</ele><time>2026-04-06T09:23:10.914Z</time></trkpt><trkpt lat="37.147265" lon="14.9036635"><ele>615.0</ele><time>2026-04-06T09:23:22.874Z</time></trkpt><trkpt lat="37.1472068" lon="14.9037031"><ele>615.0</ele><time>2026-04-06T09:23:30.881Z</time></trkpt><trkpt lat="37.1471435" lon="14.903697"><ele>615.0</ele><time>2026-04-06T09:23:38.889Z</time></trkpt><trkpt lat="37.1470785" lon="14.9037337"><ele>618.0</ele><time>2026-04-06T09:23:49.914Z</time></trkpt><trkpt lat="37.1470481" lon="14.9038067"><ele>621.0</ele><time>2026-04-06T09:24:01.874Z</time></trkpt><trkpt lat="37.1470058" lon="14.903872"><ele>624.0</ele><time>2026-04-06T09:24:12.897Z</time></trkpt><trkpt lat="37.1469535" lon="14.9039196"><ele>627.0</ele><time>2026-04-06T09:24:22.881Z</time></trkpt><trkpt lat="37.1468948" lon="14.9039579"><ele>630.0</ele><time>2026-04-06T09:24:33.905Z</time></trkpt><trkpt lat="37.146884" lon="14.9040373"><ele>633.0</ele><time>2026-04-06T09:24:46.255Z</time></trkpt><trkpt lat="37.1469498" lon="14.9040444"><ele>636.0</ele><time>2026-04-06T09:24:55.953Z</time></trkpt><trkpt lat="37.1470137" lon="14.9040477"><ele>636.0</ele><time>2026-04-06T09:25:05.937Z</time></trkpt><trkpt lat="37.1470779" lon="14.904056"><ele>636.0</ele><time>2026-04-06T09:25:15.955Z</time></trkpt><trkpt lat="37.1471123" lon="14.9041235"><ele>636.0</ele><time>2026-04-06T09:28:35.913Z</time></trkpt><trkpt lat="37.1470761" lon="14.9041979"><ele>636.0</ele><time>2026-04-06T09:31:16.905Z</time></trkpt><trkpt lat="37.1470331" lon="14.9042645"><ele>636.0</ele><time>2026-04-06T09:31:28.97Z</time></trkpt><trkpt lat="37.1469728" lon="14.9043142"><ele>636.0</ele><time>2026-04-06T09:31:39.375Z</time></trkpt><trkpt lat="37.1469039" lon="14.9043252"><ele>636.0</ele><time>2026-04-06T09:31:49.856Z</time></trkpt><trkpt lat="37.1468505" lon="14.9043687"><ele>638.8571428571428</ele><time>2026-04-06T09:31:59.961Z</time></trkpt><trkpt lat="37.1469029" lon="14.9044312"><ele>641.7142857142858</ele><time>2026-04-06T09:32:07.969Z</time></trkpt><trkpt lat="37.1469443" lon="14.9044942"><ele>644.5714285714286</ele><time>2026-04-06T09:32:17.954Z</time></trkpt><trkpt lat="37.1468842" lon="14.9045198"><ele>647.4285714285713</ele><time>2026-04-06T09:32:30.849Z</time></trkpt><trkpt lat="37.146819" lon="14.9045252"><ele>650.2857142857142</ele><time>2026-04-06T09:32:42.914Z</time></trkpt><trkpt lat="37.1467557" lon="14.9045201"><ele>653.1428571428571</ele><time>2026-04-06T09:32:51.896Z</time></trkpt><trkpt lat="37.1466861" lon="14.9045042"><ele>656.0</ele><time>2026-04-06T09:33:02.881Z</time></trkpt><trkpt lat="37.1466231" lon="14.9044837"><ele>655.9999999999999</ele><time>2026-04-06T09:33:10.889Z</time></trkpt><trkpt lat="37.1465629" lon="14.9045311"><ele>656.0</ele><time>2026-04-06T09:33:20.873Z</time></trkpt><trkpt lat="37.1465689" lon="14.9046131"><ele>656.0</ele><time>2026-04-06T09:33:28.882Z</time></trkpt><trkpt lat="37.1466034" lon="14.9046842"><ele>656.0</ele><time>2026-04-06T09:33:38.97Z</time></trkpt><trkpt lat="37.1466609" lon="14.9047309"><ele>656.0</ele><time>2026-04-06T09:33:46.977Z</time></trkpt><trkpt lat="37.1466919" lon="14.9048013"><ele>655.9999999999999</ele><time>2026-04-06T09:33:59.978Z</time></trkpt><trkpt lat="37.146722" lon="14.9048731"><ele>656.0</ele><time>2026-04-06T09:34:08.921Z</time></trkpt><trkpt lat="37.1467614" lon="14.904938"><ele>655.9999999999999</ele><time>2026-04-06T09:34:19.945Z</time></trkpt><trkpt lat="37.1468065" lon="14.9049996"><ele>656.0</ele><time>2026-04-06T09:34:28.889Z</time></trkpt><trkpt lat="37.146873" lon="14.9050374"><ele>656.0</ele><time>2026-04-06T09:34:35.961Z</time></trkpt><trkpt lat="37.1469353" lon="14.9050772"><ele>656.0</ele><time>2026-04-06T09:34:42.93Z</time></trkpt><trkpt lat="37.147" lon="14.9051064"><ele>656.0</ele><time>2026-04-06T09:34:52.913Z</time></trkpt><trkpt lat="37.1469978" lon="14.9051987"><ele>655.9999999999999</ele><time>2026-04-06T09:35:00.915Z</time></trkpt><trkpt lat="37.1469335" lon="14.9052244"><ele>656.0</ele><time>2026-04-06T09:35:13.995Z</time></trkpt><trkpt lat="37.1468719" lon="14.9052043"><ele>658.2857142857142</ele><time>2026-04-06T09:35:21.929Z</time></trkpt><trkpt lat="37.1468026" lon="14.9052087"><ele>660.5714285714286</ele><time>2026-04-06T09:35:31.914Z</time></trkpt><trkpt lat="37.1467361" lon="14.9052022"><ele>662.8571428571429</ele><time>2026-04-06T09:35:39.955Z</time></trkpt><trkpt lat="37.1466731" lon="14.9052304"><ele>665.1428571428571</ele><time>2026-04-06T09:35:49.905Z</time></trkpt><trkpt lat="37.146606" lon="14.9052624"><ele>667.4285714285714</ele><time>2026-04-06T09:36:01.97Z</time></trkpt><trkpt lat="37.146537" lon="14.9052782"><ele>669.7142857142857</ele><time>2026-04-06T09:36:11.953Z</time></trkpt><trkpt lat="37.1464744" lon="14.9052953"><ele>672.0</ele><time>2026-04-06T09:36:23.913Z</time></trkpt><trkpt lat="37.1464112" lon="14.9053073"><ele>672.8571428571429</ele><time>2026-04-06T09:36:31.818Z</time></trkpt><trkpt lat="37.1463464" lon="14.9053268"><ele>673.7142857142858</ele><time>2026-04-06T09:36:41.907Z</time></trkpt><trkpt lat="37.1462831" lon="14.9053586"><ele>674.5714285714286</ele><time>2026-04-06T09:36:49.976Z</time></trkpt><trkpt lat="37.1462202" lon="14.9053816"><ele>675.4285714285714</ele><time>2026-04-06T09:37:02.913Z</time></trkpt><trkpt lat="37.1461584" lon="14.9054082"><ele>676.2857142857143</ele><time>2026-04-06T09:37:18.894Z</time></trkpt><trkpt lat="37.146053" lon="14.9053754"><ele>677.1428571428571</ele><time>2026-04-06T09:37:39.937Z</time></trkpt><trkpt lat="37.1459889" lon="14.9053491"><ele>678.0</ele><time>2026-04-06T09:37:51.897Z</time></trkpt><trkpt lat="37.1459187" lon="14.9053525"><ele>678.0</ele><time>2026-04-06T09:38:01.985Z</time></trkpt><trkpt lat="37.1458573" lon="14.905372"><ele>678.0</ele><time>2026-04-06T09:38:12.836Z</time></trkpt><trkpt lat="37.145799" lon="14.9054183"><ele>678.0</ele><time>2026-04-06T09:38:24.954Z</time></trkpt><trkpt lat="37.1457357" lon="14.9054384"><ele>678.0</ele><time>2026-04-06T09:38:35.89Z</time></trkpt><trkpt lat="37.1456732" lon="14.9054604"><ele>678.0</ele><time>2026-04-06T09:38:47.916Z</time></trkpt><trkpt lat="37.1456127" lon="14.9054855"><ele>678.0</ele><time>2026-04-06T09:38:57.815Z</time></trkpt><trkpt lat="37.1455798" lon="14.9055571"><ele>678.0</ele><time>2026-04-06T09:39:08.962Z</time></trkpt><trkpt lat="37.1455465" lon="14.9056347"><ele>677.0</ele><time>2026-04-06T09:39:16.969Z</time></trkpt><trkpt lat="37.1455112" lon="14.9057111"><ele>676.0</ele><time>2026-04-06T09:39:25.974Z</time></trkpt><trkpt lat="37.1454719" lon="14.9057866"><ele>675.0</ele><time>2026-04-06T09:39:32.881Z</time></trkpt><trkpt lat="37.1454255" lon="14.9058457"><ele>674.0</ele><time>2026-04-06T09:39:38.913Z</time></trkpt><trkpt lat="37.1454123" lon="14.9059235"><ele>673.0</ele><time>2026-04-06T09:39:45.986Z</time></trkpt><trkpt lat="37.1454143" lon="14.9060117"><ele>672.0</ele><time>2026-04-06T09:39:52.953Z</time></trkpt><trkpt lat="37.1453987" lon="14.9061038"><ele>671.0</ele><time>2026-04-06T09:40:00.961Z</time></trkpt><trkpt lat="37.1453835" lon="14.9061904"><ele>671.0</ele><time>2026-04-06T09:40:06.89Z</time></trkpt><trkpt lat="37.1453806" lon="14.9062735"><ele>671.0</ele><time>2026-04-06T09:40:13.961Z</time></trkpt><trkpt lat="37.1453522" lon="14.9063558"><ele>671.0</ele><time>2026-04-06T09:40:19.89Z</time></trkpt><trkpt lat="37.1453183" lon="14.9064295"><ele>671.0</ele><time>2026-04-06T09:40:26.855Z</time></trkpt><trkpt lat="37.1453089" lon="14.906513"><ele>671.0</ele><time>2026-04-06T09:40:37.875Z</time></trkpt><trkpt lat="37.1452533" lon="14.9065543"><ele>671.0</ele><time>2026-04-06T09:40:52.857Z</time></trkpt><trkpt lat="37.1452017" lon="14.9066025"><ele>671.0</ele><time>2026-04-06T09:41:01.906Z</time></trkpt><trkpt lat="37.1451584" lon="14.9066781"><ele>671.0</ele><time>2026-04-06T09:41:53.906Z</time></trkpt><trkpt lat="37.1450997" lon="14.9067118"><ele>671.0</ele><time>2026-04-06T09:43:59.953Z</time></trkpt><trkpt lat="37.1451667" lon="14.9067096"><ele>671.0</ele><time>2026-04-06T09:47:03.929Z</time></trkpt><trkpt lat="37.145219" lon="14.9066573"><ele>671.0</ele><time>2026-04-06T09:47:09.961Z</time></trkpt><trkpt lat="37.1452726" lon="14.9067041"><ele>671.0</ele><time>2026-04-06T09:47:20.882Z</time></trkpt><trkpt lat="37.1452317" lon="14.9067884"><ele>671.0</ele><time>2026-04-06T09:47:46.859Z</time></trkpt><trkpt lat="37.1451914" lon="14.9068581"><ele>671.0</ele><time>2026-04-06T09:47:51.973Z</time></trkpt><trkpt lat="37.1451592" lon="14.9069331"><ele>672.0</ele><time>2026-04-06T09:47:58.941Z</time></trkpt><trkpt lat="37.1451517" lon="14.9070162"><ele>673.0</ele><time>2026-04-06T09:48:04.973Z</time></trkpt><trkpt lat="37.1451369" lon="14.9070983"><ele>674.0</ele><time>2026-04-06T09:48:11.939Z</time></trkpt><trkpt lat="37.1451199" lon="14.9071769"><ele>675.0</ele><time>2026-04-06T09:48:19.84Z</time></trkpt><trkpt lat="37.145127" lon="14.9072581"><ele>676.0</ele><time>2026-04-06T09:48:30.839Z</time></trkpt><trkpt lat="37.1451185" lon="14.9073463"><ele>677.0</ele><time>2026-04-06T09:48:36.901Z</time></trkpt><trkpt lat="37.1451045" lon="14.9074322"><ele>678.0</ele><time>2026-04-06T09:48:43.973Z</time></trkpt><trkpt lat="37.1450991" lon="14.9075217"><ele>679.2857142857142</ele><time>2026-04-06T09:48:50.942Z</time></trkpt><trkpt lat="37.1450926" lon="14.9076099"><ele>680.5714285714287</ele><time>2026-04-06T09:48:58.92Z</time></trkpt><trkpt lat="37.1450861" lon="14.9076947"><ele>681.8571428571429</ele><time>2026-04-06T09:49:05.859Z</time></trkpt><trkpt lat="37.1450808" lon="14.9077822"><ele>683.1428571428571</ele><time>2026-04-06T09:49:13.918Z</time></trkpt><trkpt lat="37.1450511" lon="14.9078595"><ele>684.4285714285713</ele><time>2026-04-06T09:49:19.957Z</time></trkpt><trkpt lat="37.1450209" lon="14.907938"><ele>685.7142857142858</ele><time>2026-04-06T09:49:26.98Z</time></trkpt><trkpt lat="37.1450128" lon="14.908022"><ele>687.0</ele><time>2026-04-06T09:49:33.893Z</time></trkpt><trkpt lat="37.1450074" lon="14.9081069"><ele>687.0</ele><time>2026-04-06T09:49:41.902Z</time></trkpt><trkpt lat="37.1450153" lon="14.9081964"><ele>687.0</ele><time>2026-04-06T09:49:52.925Z</time></trkpt><trkpt lat="37.1450663" lon="14.9082649"><ele>687.0</ele><time>2026-04-06T09:50:03.013Z</time></trkpt><trkpt lat="37.1451155" lon="14.9083312"><ele>687.0</ele><time>2026-04-06T09:50:09.876Z</time></trkpt><trkpt lat="37.1451661" lon="14.9083952"><ele>687.0</ele><time>2026-04-06T09:50:14.869Z</time></trkpt><trkpt lat="37.145204" lon="14.9084671"><ele>687.0</ele><time>2026-04-06T09:50:18.925Z</time></trkpt><trkpt lat="37.145267" lon="14.9084774"><ele>687.0</ele><time>2026-04-06T09:50:24.853Z</time></trkpt><trkpt lat="37.1453366" lon="14.9084928"><ele>689.4285714285714</ele><time>2026-04-06T09:50:30.885Z</time></trkpt><trkpt lat="37.1453817" lon="14.9085499"><ele>691.8571428571428</ele><time>2026-04-06T09:50:39.986Z</time></trkpt><trkpt lat="37.145451" lon="14.9085763"><ele>694.2857142857142</ele><time>2026-04-06T09:50:44.767Z</time></trkpt><trkpt lat="37.1455009" lon="14.9086405"><ele>696.7142857142858</ele><time>2026-04-06T09:50:50.923Z</time></trkpt><trkpt lat="37.1455608" lon="14.9086707"><ele>699.1428571428571</ele><time>2026-04-06T09:50:56.886Z</time></trkpt><trkpt lat="37.1456103" lon="14.9087327"><ele>701.5714285714286</ele><time>2026-04-06T09:51:03.854Z</time></trkpt><trkpt lat="37.1456677" lon="14.9087747"><ele>704.0</ele><time>2026-04-06T09:51:10.926Z</time></trkpt><trkpt lat="37.1457219" lon="14.9088409"><ele>699.1428571428571</ele><time>2026-04-06T09:51:15.884Z</time></trkpt><trkpt lat="37.1457631" lon="14.9089017"><ele>694.2857142857142</ele><time>2026-04-06T09:51:24.943Z</time></trkpt><trkpt lat="37.1458267" lon="14.9089492"><ele>689.4285714285713</ele><time>2026-04-06T09:51:32.923Z</time></trkpt><trkpt lat="37.1458733" lon="14.9090166"><ele>684.5714285714286</ele><time>2026-04-06T09:51:40.877Z</time></trkpt><trkpt lat="37.1459084" lon="14.9090868"><ele>679.7142857142857</ele><time>2026-04-06T09:51:45.973Z</time></trkpt><trkpt lat="37.1459681" lon="14.9091373"><ele>674.8571428571428</ele><time>2026-04-06T09:51:53.878Z</time></trkpt><trkpt lat="37.1460427" lon="14.9091585"><ele>670.0</ele><time>2026-04-06T09:52:00.95Z</time></trkpt><trkpt lat="37.1461006" lon="14.9092119"><ele>670.4285714285713</ele><time>2026-04-06T09:52:07.917Z</time></trkpt><trkpt lat="37.1461579" lon="14.9092665"><ele>670.8571428571429</ele><time>2026-04-06T09:52:13.949Z</time></trkpt><trkpt lat="37.1461736" lon="14.909345"><ele>671.2857142857142</ele><time>2026-04-06T09:52:19.877Z</time></trkpt><trkpt lat="37.1462057" lon="14.9094231"><ele>671.7142857142857</ele><time>2026-04-06T09:52:26.949Z</time></trkpt><trkpt lat="37.1462478" lon="14.9094923"><ele>672.1428571428571</ele><time>2026-04-06T09:52:33.918Z</time></trkpt><trkpt lat="37.146253" lon="14.909579"><ele>672.5714285714286</ele><time>2026-04-06T09:52:42.861Z</time></trkpt><trkpt lat="37.1462351" lon="14.9096683"><ele>673.0</ele><time>2026-04-06T09:52:47.911Z</time></trkpt><trkpt lat="37.1462407" lon="14.9097487"><ele>673.0</ele><time>2026-04-06T09:52:52.971Z</time></trkpt><trkpt lat="37.1462667" lon="14.9098392"><ele>673.0</ele><time>2026-04-06T09:53:01.893Z</time></trkpt><trkpt lat="37.1462911" lon="14.9099139"><ele>673.0</ele><time>2026-04-06T09:53:09.901Z</time></trkpt><trkpt lat="37.1463046" lon="14.9099963"><ele>673.0</ele><time>2026-04-06T09:53:15.933Z</time></trkpt><trkpt lat="37.1463251" lon="14.9100778"><ele>673.0</ele><time>2026-04-06T09:53:22.902Z</time></trkpt><trkpt lat="37.1463312" lon="14.9101637"><ele>673.0</ele><time>2026-04-06T09:53:30.909Z</time></trkpt><trkpt lat="37.1463259" lon="14.9102438"><ele>673.0</ele><time>2026-04-06T09:53:35.892Z</time></trkpt><trkpt lat="37.1463515" lon="14.9103233"><ele>672.4285714285714</ele><time>2026-04-06T09:53:42.791Z</time></trkpt><trkpt lat="37.1463801" lon="14.9104017"><ele>671.8571428571428</ele><time>2026-04-06T09:53:49.942Z</time></trkpt><trkpt lat="37.146399" lon="14.9104801"><ele>671.2857142857142</ele><time>2026-04-06T09:53:57.845Z</time></trkpt><trkpt lat="37.1464281" lon="14.9105558"><ele>670.7142857142858</ele><time>2026-04-06T09:54:03.878Z</time></trkpt><trkpt lat="37.1464769" lon="14.9106156"><ele>670.1428571428571</ele><time>2026-04-06T09:54:13.965Z</time></trkpt><trkpt lat="37.1465293" lon="14.9106646"><ele>669.5714285714286</ele><time>2026-04-06T09:54:22.91Z</time></trkpt><trkpt lat="37.1465162" lon="14.910744"><ele>669.0</ele><time>2026-04-06T09:55:24.893Z</time></trkpt><trkpt lat="37.1465122" lon="14.9106607"><ele>669.0</ele><time>2026-04-06T09:56:00.915Z</time></trkpt><trkpt lat="37.146561" lon="14.9107146"><ele>669.0</ele><time>2026-04-06T09:56:42.89Z</time></trkpt><trkpt lat="37.1465267" lon="14.9107813"><ele>669.0</ele><time>2026-04-06T09:57:10.836Z</time></trkpt><trkpt lat="37.1465101" lon="14.9106493"><ele>669.0</ele><time>2026-04-06T10:03:03.956Z</time></trkpt><trkpt lat="37.146547" lon="14.910728"><ele>669.0</ele><time>2026-04-06T10:03:06.961Z</time></trkpt><trkpt lat="37.1465441" lon="14.9108175"><ele>669.0</ele><time>2026-04-06T10:03:12.977Z</time></trkpt><trkpt lat="37.1465663" lon="14.9108922"><ele>669.0</ele><time>2026-04-06T10:03:19.962Z</time></trkpt><trkpt lat="37.1466233" lon="14.9109451"><ele>666.5714285714286</ele><time>2026-04-06T10:03:27.97Z</time></trkpt><trkpt lat="37.1466843" lon="14.910918"><ele>664.1428571428571</ele><time>2026-04-06T10:03:32.962Z</time></trkpt><trkpt lat="37.1467543" lon="14.910868"><ele>661.7142857142858</ele><time>2026-04-06T10:03:37.975Z</time></trkpt><trkpt lat="37.1468024" lon="14.9108146"><ele>659.2857142857142</ele><time>2026-04-06T10:03:45.858Z</time></trkpt><trkpt lat="37.1468352" lon="14.9107414"><ele>656.8571428571428</ele><time>2026-04-06T10:03:51.976Z</time></trkpt><trkpt lat="37.1468678" lon="14.9106676"><ele>654.4285714285714</ele><time>2026-04-06T10:03:57.922Z</time></trkpt><trkpt lat="37.1468815" lon="14.9105747"><ele>652.0</ele><time>2026-04-06T10:04:03.936Z</time></trkpt><trkpt lat="37.1468747" lon="14.9104941"><ele>651.0</ele><time>2026-04-06T10:04:08.876Z</time></trkpt><trkpt lat="37.1468419" lon="14.9104222"><ele>650.0</ele><time>2026-04-06T10:04:15.913Z</time></trkpt><trkpt lat="37.1468132" lon="14.91035"><ele>649.0</ele><time>2026-04-06T10:04:21.945Z</time></trkpt><trkpt lat="37.146792" lon="14.9102642"><ele>648.0</ele><time>2026-04-06T10:04:28.914Z</time></trkpt><trkpt lat="37.1468066" lon="14.9101831"><ele>647.0</ele><time>2026-04-06T10:04:35.881Z</time></trkpt><trkpt lat="37.1468386" lon="14.9101006"><ele>646.0</ele><time>2026-04-06T10:04:41.913Z</time></trkpt><trkpt lat="37.1468934" lon="14.9100501"><ele>645.0</ele><time>2026-04-06T10:04:46.905Z</time></trkpt><trkpt lat="37.1469327" lon="14.9099843"><ele>645.0</ele><time>2026-04-06T10:04:53.556Z</time></trkpt><trkpt lat="37.1469412" lon="14.9099026"><ele>645.0</ele><time>2026-04-06T10:04:59.905Z</time></trkpt><trkpt lat="37.1469426" lon="14.9098138"><ele>645.0</ele><time>2026-04-06T10:05:05.937Z</time></trkpt><trkpt lat="37.1469397" lon="14.9097204"><ele>645.0</ele><time>2026-04-06T10:05:12.855Z</time></trkpt><trkpt lat="37.1469567" lon="14.909636"><ele>645.0</ele><time>2026-04-06T10:05:17.975Z</time></trkpt><trkpt lat="37.1469926" lon="14.9095639"><ele>645.0</ele><time>2026-04-06T10:05:23.929Z</time></trkpt><trkpt lat="37.1470357" lon="14.9094952"><ele>645.0</ele><time>2026-04-06T10:05:29.961Z</time></trkpt><trkpt lat="37.1470866" lon="14.9094284"><ele>645.0</ele><time>2026-04-06T10:05:36.975Z</time></trkpt><trkpt lat="37.1471376" lon="14.9093731"><ele>645.0</ele><time>2026-04-06T10:05:44.937Z</time></trkpt><trkpt lat="37.1471883" lon="14.9093119"><ele>645.0</ele><time>2026-04-06T10:05:51.905Z</time></trkpt><trkpt lat="37.1472315" lon="14.909243"><ele>645.0</ele><time>2026-04-06T10:05:57.955Z</time></trkpt><trkpt lat="37.1472331" lon="14.9091556"><ele>645.0</ele><time>2026-04-06T10:06:05.945Z</time></trkpt><trkpt lat="37.1473" lon="14.909121"><ele>645.0</ele><time>2026-04-06T10:06:55.865Z</time></trkpt><trkpt lat="37.1472506" lon="14.9090683"><ele>645.0</ele><time>2026-04-06T10:07:16.874Z</time></trkpt><trkpt lat="37.1472911" lon="14.9090016"><ele>644.4285714285714</ele><time>2026-04-06T10:07:49.975Z</time></trkpt><trkpt lat="37.1472833" lon="14.9089221"><ele>643.8571428571428</ele><time>2026-04-06T10:08:00.866Z</time></trkpt><trkpt lat="37.1473329" lon="14.908983"><ele>643.2857142857142</ele><time>2026-04-06T10:08:26.865Z</time></trkpt><trkpt lat="37.147297" lon="14.9090527"><ele>642.7142857142858</ele><time>2026-04-06T10:12:40.933Z</time></trkpt><trkpt lat="37.1472614" lon="14.908958"><ele>642.1428571428571</ele><time>2026-04-06T10:13:02.878Z</time></trkpt><trkpt lat="37.147328" lon="14.9089622"><ele>641.5714285714286</ele><time>2026-04-06T10:13:08.909Z</time></trkpt><trkpt lat="37.1473637" lon="14.9090292"><ele>641.0</ele><time>2026-04-06T10:13:15.878Z</time></trkpt><trkpt lat="37.1473492" lon="14.9091147"><ele>641.0</ele><time>2026-04-06T10:13:26.902Z</time></trkpt><trkpt lat="37.147292" lon="14.909157"><ele>641.0</ele><time>2026-04-06T10:13:32.83Z</time></trkpt><trkpt lat="37.1472295" lon="14.9091875"><ele>641.0</ele><time>2026-04-06T10:13:46.87Z</time></trkpt><trkpt lat="37.1472567" lon="14.909269"><ele>641.0</ele><time>2026-04-06T10:14:45.937Z</time></trkpt><trkpt lat="37.1473239" lon="14.9092465"><ele>641.0</ele><time>2026-04-06T10:14:55.891Z</time></trkpt><trkpt lat="37.1473881" lon="14.909254"><ele>641.0</ele><time>2026-04-06T10:15:02.199Z</time></trkpt><trkpt lat="37.1473272" lon="14.9092158"><ele>641.0</ele><time>2026-04-06T10:17:07.975Z</time></trkpt><trkpt lat="37.147367" lon="14.9091416"><ele>641.0</ele><time>2026-04-06T10:17:19.861Z</time></trkpt><trkpt lat="37.1474086" lon="14.9090789"><ele>641.0</ele><time>2026-04-06T10:17:26.934Z</time></trkpt><trkpt lat="37.1474733" lon="14.9090487"><ele>641.0</ele><time>2026-04-06T10:17:38.894Z</time></trkpt><trkpt lat="37.1474853" lon="14.9089649"><ele>641.0</ele><time>2026-04-06T10:18:04.89Z</time></trkpt><trkpt lat="37.1475492" lon="14.9090002"><ele>641.0</ele><time>2026-04-06T10:23:17.496Z</time></trkpt><trkpt lat="37.1474928" lon="14.9090412"><ele>641.0</ele><time>2026-04-06T10:38:04.945Z</time></trkpt><trkpt lat="37.1474276" lon="14.9090646"><ele>641.0</ele><time>2026-04-06T10:38:18.976Z</time></trkpt><trkpt lat="37.1473642" lon="14.9090885"><ele>641.0</ele><time>2026-04-06T10:38:34.893Z</time></trkpt><trkpt lat="37.1473029" lon="14.9091116"><ele>641.0</ele><time>2026-04-06T10:38:41.861Z</time></trkpt><trkpt lat="37.1472599" lon="14.9091765"><ele>641.0</ele><time>2026-04-06T10:38:49.974Z</time></trkpt><trkpt lat="37.1471934" lon="14.909181"><ele>641.0</ele><time>2026-04-06T10:39:44.886Z</time></trkpt><trkpt lat="37.1472577" lon="14.9091754"><ele>641.0</ele><time>2026-04-06T10:49:06.901Z</time></trkpt><trkpt lat="37.1473076" lon="14.9092335"><ele>641.0</ele><time>2026-04-06T10:51:39.989Z</time></trkpt><trkpt lat="37.1473653" lon="14.9092745"><ele>641.0</ele><time>2026-04-06T10:51:45.14Z</time></trkpt><trkpt lat="37.14731" lon="14.9092137"><ele>641.0</ele><time>2026-04-06T10:58:18.828Z</time></trkpt><trkpt lat="37.1472765" lon="14.9091155"><ele>641.0</ele><time>2026-04-06T11:03:11.902Z</time></trkpt><trkpt lat="37.1472206" lon="14.9091607"><ele>641.0</ele><time>2026-04-06T11:04:12.95Z</time></trkpt><trkpt lat="37.1472839" lon="14.9091794"><ele>641.0</ele><time>2026-04-06T11:20:52.909Z</time></trkpt><trkpt lat="37.1473695" lon="14.9091801"><ele>641.0</ele><time>2026-04-06T11:22:23.909Z</time></trkpt><trkpt lat="37.1473138" lon="14.9092181"><ele>641.0</ele><time>2026-04-06T11:24:44.933Z</time></trkpt><trkpt lat="37.1473061" lon="14.9091382"><ele>641.0</ele><time>2026-04-06T11:26:22.901Z</time></trkpt><trkpt lat="37.1472824" lon="14.9090616"><ele>641.0</ele><time>2026-04-06T11:31:17.949Z</time></trkpt><trkpt lat="37.1473331" lon="14.9090055"><ele>641.0</ele><time>2026-04-06T11:31:26.893Z</time></trkpt><trkpt lat="37.1473167" lon="14.9090954"><ele>641.0</ele><time>2026-04-06T11:33:49.897Z</time></trkpt><trkpt lat="37.1472823" lon="14.9091674"><ele>641.0</ele><time>2026-04-06T11:33:55.929Z</time></trkpt><trkpt lat="37.14727" lon="14.9092523"><ele>641.0</ele><time>2026-04-06T11:34:04.936Z</time></trkpt><trkpt lat="37.1472153" lon="14.9091808"><ele>641.0</ele><time>2026-04-06T11:41:20.842Z</time></trkpt><trkpt lat="37.1472388" lon="14.9092544"><ele>641.0</ele><time>2026-04-06T11:41:29.889Z</time></trkpt><trkpt lat="37.1472691" lon="14.909176"><ele>641.0</ele><time>2026-04-06T11:41:42.889Z</time></trkpt><trkpt lat="37.1473109" lon="14.9091104"><ele>641.0</ele><time>2026-04-06T11:41:48.921Z</time></trkpt><trkpt lat="37.1473796" lon="14.9091015"><ele>641.0</ele><time>2026-04-06T11:42:16.898Z</time></trkpt><trkpt lat="37.1473516" lon="14.9090275"><ele>641.0</ele><time>2026-04-06T11:43:30.941Z</time></trkpt><trkpt lat="37.1473376" lon="14.9091276"><ele>641.0</ele><time>2026-04-06T11:44:36.885Z</time></trkpt><trkpt lat="37.1472777" lon="14.9091989"><ele>641.0</ele><time>2026-04-06T11:44:51.965Z</time></trkpt><trkpt lat="37.14722" lon="14.9092356"><ele>641.0</ele><time>2026-04-06T11:44:57.893Z</time></trkpt><trkpt lat="37.1472845" lon="14.909234"><ele>641.0</ele><time>2026-04-06T11:45:42.879Z</time></trkpt><trkpt lat="37.1473504" lon="14.9092482"><ele>641.0</ele><time>2026-04-06T11:47:10.914Z</time></trkpt><trkpt lat="37.14742" lon="14.9092606"><ele>641.0</ele><time>2026-04-06T11:47:22.873Z</time></trkpt><trkpt lat="37.14749" lon="14.9092388"><ele>641.0</ele><time>2026-04-06T11:47:33.897Z</time></trkpt><trkpt lat="37.147547" lon="14.9092004"><ele>641.0</ele><time>2026-04-06T11:47:38.87Z</time></trkpt><trkpt lat="37.1474798" lon="14.909217"><ele>641.0</ele><time>2026-04-06T11:49:01.89Z</time></trkpt><trkpt lat="37.1474013" lon="14.9092073"><ele>641.0</ele><time>2026-04-06T11:49:19.881Z</time></trkpt><trkpt lat="37.1473333" lon="14.9092202"><ele>641.0</ele><time>2026-04-06T11:49:30.906Z</time></trkpt><trkpt lat="37.1472694" lon="14.9091984"><ele>641.0</ele><time>2026-04-06T11:53:15.864Z</time></trkpt><trkpt lat="37.1473057" lon="14.9092645"><ele>641.0</ele><time>2026-04-06T11:53:55.893Z</time></trkpt><trkpt lat="37.1472397" lon="14.9092337"><ele>641.0</ele><time>2026-04-06T11:57:04.966Z</time></trkpt><trkpt lat="37.1471885" lon="14.9092853"><ele>641.0</ele><time>2026-04-06T11:57:12.973Z</time></trkpt><trkpt lat="37.1471644" lon="14.909366"><ele>641.0</ele><time>2026-04-06T11:57:18.901Z</time></trkpt><trkpt lat="37.1471103" lon="14.9094181"><ele>641.0</ele><time>2026-04-06T11:57:24.867Z</time></trkpt><trkpt lat="37.1470508" lon="14.9094611"><ele>641.5714285714286</ele><time>2026-04-06T11:57:30.965Z</time></trkpt><trkpt lat="37.1469959" lon="14.9095177"><ele>642.1428571428571</ele><time>2026-04-06T11:57:37.934Z</time></trkpt><trkpt lat="37.1469757" lon="14.9095938"><ele>642.7142857142858</ele><time>2026-04-06T11:57:47.918Z</time></trkpt><trkpt lat="37.1469601" lon="14.909682"><ele>643.2857142857142</ele><time>2026-04-06T11:57:54.886Z</time></trkpt><trkpt lat="37.1469423" lon="14.9097774"><ele>643.8571428571428</ele><time>2026-04-06T11:57:59.878Z</time></trkpt><trkpt lat="37.1469379" lon="14.9098703"><ele>644.4285714285714</ele><time>2026-04-06T11:58:04.973Z</time></trkpt><trkpt lat="37.1469318" lon="14.9099622"><ele>645.0</ele><time>2026-04-06T11:58:09.965Z</time></trkpt><trkpt lat="37.146923" lon="14.9100519"><ele>645.0</ele><time>2026-04-06T11:58:16.933Z</time></trkpt><trkpt lat="37.1468842" lon="14.9101157"><ele>645.0</ele><time>2026-04-06T11:58:25.877Z</time></trkpt><trkpt lat="37.1468312" lon="14.91017"><ele>645.0</ele><time>2026-04-06T11:58:34.925Z</time></trkpt><trkpt lat="37.1468297" lon="14.9102572"><ele>645.0</ele><time>2026-04-06T11:58:43.974Z</time></trkpt><trkpt lat="37.1468488" lon="14.9103328"><ele>645.0</ele><time>2026-04-06T11:58:50.941Z</time></trkpt><trkpt lat="37.146856" lon="14.9104183"><ele>645.0</ele><time>2026-04-06T11:58:59.885Z</time></trkpt><trkpt lat="37.1468439" lon="14.9104987"><ele>645.0</ele><time>2026-04-06T11:59:10.909Z</time></trkpt><trkpt lat="37.1468391" lon="14.9105786"><ele>645.0</ele><time>2026-04-06T11:59:18.918Z</time></trkpt><trkpt lat="37.146854" lon="14.9106631"><ele>645.0</ele><time>2026-04-06T11:59:26.926Z</time></trkpt><trkpt lat="37.1468286" lon="14.910747"><ele>645.0</ele><time>2026-04-06T11:59:31.917Z</time></trkpt><trkpt lat="37.146791" lon="14.9108143"><ele>645.0</ele><time>2026-04-06T11:59:39.151Z</time></trkpt><trkpt lat="37.1467452" lon="14.9108836"><ele>645.0</ele><time>2026-04-06T11:59:47.829Z</time></trkpt><trkpt lat="37.1466862" lon="14.9109306"><ele>645.0</ele><time>2026-04-06T11:59:56.878Z</time></trkpt><trkpt lat="37.1466214" lon="14.9109221"><ele>645.0</ele><time>2026-04-06T12:00:05.883Z</time></trkpt><trkpt lat="37.1465723" lon="14.9108641"><ele>648.4285714285714</ele><time>2026-04-06T12:00:16.949Z</time></trkpt><trkpt lat="37.1465378" lon="14.9107876"><ele>651.8571428571428</ele><time>2026-04-06T12:00:24.958Z</time></trkpt><trkpt lat="37.1465267" lon="14.9107047"><ele>655.2857142857142</ele><time>2026-04-06T12:00:33.901Z</time></trkpt><trkpt lat="37.1465015" lon="14.9106282"><ele>658.7142857142858</ele><time>2026-04-06T12:00:41.909Z</time></trkpt><trkpt lat="37.1464728" lon="14.9105459"><ele>662.1428571428571</ele><time>2026-04-06T12:00:48.877Z</time></trkpt><trkpt lat="37.1464453" lon="14.9104729"><ele>665.5714285714286</ele><time>2026-04-06T12:00:55.845Z</time></trkpt><trkpt lat="37.1464286" lon="14.9103834"><ele>669.0</ele><time>2026-04-06T12:01:02.918Z</time></trkpt><trkpt lat="37.1463957" lon="14.9103109"><ele>669.0</ele><time>2026-04-06T12:01:09.961Z</time></trkpt><trkpt lat="37.1463416" lon="14.9102635"><ele>669.0</ele><time>2026-04-06T12:01:16.854Z</time></trkpt><trkpt lat="37.1463533" lon="14.9101459"><ele>669.0</ele><time>2026-04-06T12:01:39.837Z</time></trkpt><trkpt lat="37.1463506" lon="14.9100644"><ele>669.0</ele><time>2026-04-06T12:01:47.95Z</time></trkpt><trkpt lat="37.1463246" lon="14.9099837"><ele>669.0</ele><time>2026-04-06T12:01:55.957Z</time></trkpt><trkpt lat="37.1463163" lon="14.9098994"><ele>669.0</ele><time>2026-04-06T12:02:05.941Z</time></trkpt><trkpt lat="37.1463266" lon="14.9098188"><ele>669.0</ele><time>2026-04-06T12:02:14.886Z</time></trkpt><trkpt lat="37.1463396" lon="14.9097353"><ele>669.5714285714286</ele><time>2026-04-06T12:02:25.909Z</time></trkpt><trkpt lat="37.1463115" lon="14.9096627"><ele>670.1428571428571</ele><time>2026-04-06T12:02:34.957Z</time></trkpt><trkpt lat="37.1462918" lon="14.9095809"><ele>670.7142857142858</ele><time>2026-04-06T12:02:44.941Z</time></trkpt><trkpt lat="37.1462668" lon="14.9095032"><ele>671.2857142857142</ele><time>2026-04-06T12:02:54.879Z</time></trkpt><trkpt lat="37.1462412" lon="14.90943"><ele>671.8571428571428</ele><time>2026-04-06T12:03:04.909Z</time></trkpt><trkpt lat="37.1461993" lon="14.9093699"><ele>672.4285714285714</ele><time>2026-04-06T12:03:13.853Z</time></trkpt><trkpt lat="37.1461694" lon="14.9092983"><ele>673.0</ele><time>2026-04-06T12:03:24.877Z</time></trkpt><trkpt lat="37.1461116" lon="14.9092586"><ele>672.5714285714286</ele><time>2026-04-06T12:03:33.925Z</time></trkpt><trkpt lat="37.1460494" lon="14.9092219"><ele>672.1428571428571</ele><time>2026-04-06T12:03:39.958Z</time></trkpt><trkpt lat="37.1459951" lon="14.909165"><ele>671.7142857142857</ele><time>2026-04-06T12:03:48.961Z</time></trkpt><trkpt lat="37.1459355" lon="14.9091334"><ele>671.2857142857142</ele><time>2026-04-06T12:03:58.989Z</time></trkpt><trkpt lat="37.145889" lon="14.9090739"><ele>670.8571428571429</ele><time>2026-04-06T12:04:06.9Z</time></trkpt><trkpt lat="37.1458448" lon="14.9090061"><ele>670.4285714285713</ele><time>2026-04-06T12:04:17.917Z</time></trkpt><trkpt lat="37.1458003" lon="14.90895"><ele>670.0</ele><time>2026-04-06T12:04:24.886Z</time></trkpt><trkpt lat="37.1457567" lon="14.9088851"><ele>674.8571428571428</ele><time>2026-04-06T12:04:31.957Z</time></trkpt><trkpt lat="37.1457048" lon="14.9088339"><ele>679.7142857142857</ele><time>2026-04-06T12:04:40.901Z</time></trkpt><trkpt lat="37.1456547" lon="14.9087719"><ele>684.5714285714286</ele><time>2026-04-06T12:04:50.885Z</time></trkpt><trkpt lat="37.1456028" lon="14.9087114"><ele>689.4285714285713</ele><time>2026-04-06T12:04:57.939Z</time></trkpt><trkpt lat="37.1455414" lon="14.9086677"><ele>694.2857142857142</ele><time>2026-04-06T12:05:03.885Z</time></trkpt><trkpt lat="37.145482" lon="14.9086331"><ele>699.1428571428571</ele><time>2026-04-06T12:05:11.893Z</time></trkpt><trkpt lat="37.1454223" lon="14.9086007"><ele>704.0</ele><time>2026-04-06T12:05:19.902Z</time></trkpt><trkpt lat="37.1453712" lon="14.908547"><ele>704.0</ele><time>2026-04-06T12:05:27.909Z</time></trkpt><trkpt lat="37.1453144" lon="14.9085076"><ele>704.0</ele><time>2026-04-06T12:05:37.894Z</time></trkpt><trkpt lat="37.1452489" lon="14.9084871"><ele>704.0</ele><time>2026-04-06T12:05:44.879Z</time></trkpt><trkpt lat="37.1451918" lon="14.9084448"><ele>704.0</ele><time>2026-04-06T12:05:51.759Z</time></trkpt><trkpt lat="37.1451483" lon="14.9083865"><ele>704.0</ele><time>2026-04-06T12:05:57.966Z</time></trkpt><trkpt lat="37.1451339" lon="14.9083"><ele>704.0</ele><time>2026-04-06T12:06:02.958Z</time></trkpt><trkpt lat="37.1451071" lon="14.9082171"><ele>704.0</ele><time>2026-04-06T12:06:09.859Z</time></trkpt><trkpt lat="37.1450704" lon="14.9081497"><ele>701.5714285714286</ele><time>2026-04-06T12:06:16.894Z</time></trkpt><trkpt lat="37.1450806" lon="14.9080705"><ele>699.1428571428571</ele><time>2026-04-06T12:06:24.901Z</time></trkpt><trkpt lat="37.1450951" lon="14.9079933"><ele>696.7142857142858</ele><time>2026-04-06T12:06:30.92Z</time></trkpt><trkpt lat="37.1451126" lon="14.9079173"><ele>694.2857142857142</ele><time>2026-04-06T12:06:38.941Z</time></trkpt><trkpt lat="37.145127" lon="14.9078311"><ele>691.8571428571428</ele><time>2026-04-06T12:06:47.859Z</time></trkpt><trkpt lat="37.1451356" lon="14.9077477"><ele>689.4285714285714</ele><time>2026-04-06T12:06:54.957Z</time></trkpt><trkpt lat="37.1451604" lon="14.9076672"><ele>687.0</ele><time>2026-04-06T12:07:01.926Z</time></trkpt><trkpt lat="37.1451598" lon="14.907587"><ele>685.7142857142858</ele><time>2026-04-06T12:07:09.919Z</time></trkpt><trkpt lat="37.1451667" lon="14.9075"><ele>684.4285714285713</ele><time>2026-04-06T12:07:15.956Z</time></trkpt><trkpt lat="37.1451599" lon="14.9074134"><ele>683.1428571428571</ele><time>2026-04-06T12:07:22.941Z</time></trkpt><trkpt lat="37.145153" lon="14.9073298"><ele>681.8571428571429</ele><time>2026-04-06T12:07:30.941Z</time></trkpt><trkpt lat="37.1451379" lon="14.9072444"><ele>680.5714285714287</ele><time>2026-04-06T12:07:37.909Z</time></trkpt><trkpt lat="37.1451607" lon="14.9071515"><ele>679.2857142857142</ele><time>2026-04-06T12:07:45.139Z</time></trkpt><trkpt lat="37.1451649" lon="14.9070721"><ele>678.0</ele><time>2026-04-06T12:07:51.95Z</time></trkpt><trkpt lat="37.1451279" lon="14.9070077"><ele>678.0</ele><time>2026-04-06T12:07:58.918Z</time></trkpt><trkpt lat="37.1451381" lon="14.9069269"><ele>678.0</ele><time>2026-04-06T12:08:07.966Z</time></trkpt><trkpt lat="37.1451578" lon="14.9068517"><ele>678.0</ele><time>2026-04-06T12:08:13.894Z</time></trkpt><trkpt lat="37.1451713" lon="14.906772"><ele>678.0</ele><time>2026-04-06T12:08:22.941Z</time></trkpt><trkpt lat="37.1452164" lon="14.906705"><ele>678.0</ele><time>2026-04-06T12:08:29.91Z</time></trkpt><trkpt lat="37.145224" lon="14.9066251"><ele>678.0</ele><time>2026-04-06T12:09:02.877Z</time></trkpt><trkpt lat="37.1452797" lon="14.9065572"><ele>678.0</ele><time>2026-04-06T12:14:41.917Z</time></trkpt><trkpt lat="37.14534" lon="14.9065121"><ele>677.0</ele><time>2026-04-06T12:14:45.973Z</time></trkpt><trkpt lat="37.1453628" lon="14.9064323"><ele>676.0</ele><time>2026-04-06T12:14:50.862Z</time></trkpt><trkpt lat="37.1453649" lon="14.9063502"><ele>675.0</ele><time>2026-04-06T12:14:59.91Z</time></trkpt><trkpt lat="37.1453847" lon="14.9062687"><ele>674.0</ele><time>2026-04-06T12:15:08.957Z</time></trkpt><trkpt lat="37.1453971" lon="14.9061899"><ele>673.0</ele><time>2026-04-06T12:15:17.901Z</time></trkpt><trkpt lat="37.1454132" lon="14.9061091"><ele>672.0</ele><time>2026-04-06T12:15:24.973Z</time></trkpt><trkpt lat="37.145413" lon="14.9060273"><ele>671.0</ele><time>2026-04-06T12:15:32.878Z</time></trkpt><trkpt lat="37.1454356" lon="14.905943"><ele>670.4285714285714</ele><time>2026-04-06T12:15:39.95Z</time></trkpt><trkpt lat="37.1454761" lon="14.9058696"><ele>669.8571428571429</ele><time>2026-04-06T12:15:46.918Z</time></trkpt><trkpt lat="37.1455133" lon="14.9058027"><ele>669.2857142857143</ele><time>2026-04-06T12:15:53.885Z</time></trkpt><trkpt lat="37.1455595" lon="14.9057397"><ele>668.7142857142858</ele><time>2026-04-06T12:16:03.973Z</time></trkpt><trkpt lat="37.1455906" lon="14.9056606"><ele>668.1428571428571</ele><time>2026-04-06T12:16:10.941Z</time></trkpt><trkpt lat="37.1456136" lon="14.9055814"><ele>667.5714285714287</ele><time>2026-04-06T12:16:16.869Z</time></trkpt><trkpt lat="37.1456524" lon="14.9055073"><ele>667.0</ele><time>2026-04-06T12:16:23.942Z</time></trkpt><trkpt lat="37.1457144" lon="14.9054718"><ele>668.5714285714287</ele><time>2026-04-06T12:16:31.963Z</time></trkpt><trkpt lat="37.1457789" lon="14.9054647"><ele>670.1428571428571</ele><time>2026-04-06T12:16:37.878Z</time></trkpt><trkpt lat="37.1458477" lon="14.9054572"><ele>671.7142857142858</ele><time>2026-04-06T12:16:42.965Z</time></trkpt><trkpt lat="37.1459136" lon="14.9054267"><ele>673.2857142857143</ele><time>2026-04-06T12:16:49.941Z</time></trkpt><trkpt lat="37.1459745" lon="14.9053818"><ele>674.8571428571429</ele><time>2026-04-06T12:16:55.869Z</time></trkpt><trkpt lat="37.1460452" lon="14.9054"><ele>676.4285714285714</ele><time>2026-04-06T12:17:03.924Z</time></trkpt><trkpt lat="37.1461004" lon="14.9054451"><ele>678.0</ele><time>2026-04-06T12:17:11.885Z</time></trkpt><trkpt lat="37.1461659" lon="14.9054496"><ele>678.0</ele><time>2026-04-06T12:17:18.957Z</time></trkpt><trkpt lat="37.1462316" lon="14.9054492"><ele>678.0</ele><time>2026-04-06T12:17:25.925Z</time></trkpt><trkpt lat="37.1463064" lon="14.9054495"><ele>678.0</ele><time>2026-04-06T12:17:34.974Z</time></trkpt><trkpt lat="37.1463704" lon="14.9054204"><ele>678.0</ele><time>2026-04-06T12:17:40.923Z</time></trkpt><trkpt lat="37.1464186" lon="14.9053661"><ele>678.0</ele><time>2026-04-06T12:17:50.867Z</time></trkpt><trkpt lat="37.1464735" lon="14.9053247"><ele>678.0</ele><time>2026-04-06T12:17:57.854Z</time></trkpt><trkpt lat="37.1465419" lon="14.9053077"><ele>678.0</ele><time>2026-04-06T12:18:04.963Z</time></trkpt><trkpt lat="37.1466104" lon="14.9053125"><ele>677.1428571428571</ele><time>2026-04-06T12:18:09.917Z</time></trkpt><trkpt lat="37.1466812" lon="14.9052883"><ele>676.2857142857143</ele><time>2026-04-06T12:18:15.949Z</time></trkpt><trkpt lat="37.1467431" lon="14.9052673"><ele>675.4285714285714</ele><time>2026-04-06T12:18:20.942Z</time></trkpt><trkpt lat="37.1468185" lon="14.905259"><ele>674.5714285714286</ele><time>2026-04-06T12:18:25.944Z</time></trkpt><trkpt lat="37.1468893" lon="14.9052687"><ele>673.7142857142858</ele><time>2026-04-06T12:18:32.901Z</time></trkpt><trkpt lat="37.146959" lon="14.9052731"><ele>672.8571428571429</ele><time>2026-04-06T12:18:39.924Z</time></trkpt><trkpt lat="37.147019" lon="14.905218"><ele>672.0</ele><time>2026-04-06T12:18:45.923Z</time></trkpt><trkpt lat="37.1470253" lon="14.9051355"><ele>669.7142857142857</ele><time>2026-04-06T12:18:52.974Z</time></trkpt><trkpt lat="37.1469763" lon="14.9050752"><ele>667.4285714285714</ele><time>2026-04-06T12:18:58.902Z</time></trkpt><trkpt lat="37.1469187" lon="14.9050432"><ele>665.1428571428571</ele><time>2026-04-06T12:19:03.894Z</time></trkpt><trkpt lat="37.1468677" lon="14.9049918"><ele>662.8571428571429</ele><time>2026-04-06T12:19:11.901Z</time></trkpt><trkpt lat="37.1468148" lon="14.9049406"><ele>660.5714285714286</ele><time>2026-04-06T12:19:16.893Z</time></trkpt><trkpt lat="37.1467576" lon="14.9049037"><ele>658.2857142857142</ele><time>2026-04-06T12:19:21.886Z</time></trkpt><trkpt lat="37.1467234" lon="14.9048277"><ele>656.0</ele><time>2026-04-06T12:19:29.285Z</time></trkpt><trkpt lat="37.146679" lon="14.9047537"><ele>655.9999999999999</ele><time>2026-04-06T12:19:34.524Z</time></trkpt><trkpt lat="37.1466328" lon="14.9046857"><ele>656.0</ele><time>2026-04-06T12:19:39.664Z</time></trkpt><trkpt lat="37.1465838" lon="14.90463"><ele>656.0</ele><time>2026-04-06T12:19:45.783Z</time></trkpt><trkpt lat="37.1466243" lon="14.9045686"><ele>656.0</ele><time>2026-04-06T12:19:51.837Z</time></trkpt><trkpt lat="37.1466973" lon="14.9045051"><ele>656.0</ele><time>2026-04-06T12:20:07.957Z</time></trkpt><trkpt lat="37.1467603" lon="14.9045109"><ele>655.9999999999999</ele><time>2026-04-06T12:20:11.909Z</time></trkpt><trkpt lat="37.1468339" lon="14.9045251"><ele>656.0</ele><time>2026-04-06T12:20:17.941Z</time></trkpt><trkpt lat="37.1468957" lon="14.9045445"><ele>655.9999999999999</ele><time>2026-04-06T12:20:22.934Z</time></trkpt><trkpt lat="37.1469656" lon="14.9045341"><ele>656.0</ele><time>2026-04-06T12:20:32.794Z</time></trkpt><trkpt lat="37.1469523" lon="14.9044569"><ele>656.0</ele><time>2026-04-06T12:20:44.981Z</time></trkpt><trkpt lat="37.1468911" lon="14.9044296"><ele>656.0</ele><time>2026-04-06T12:20:51.949Z</time></trkpt><trkpt lat="37.1469338" lon="14.9043678"><ele>656.0</ele><time>2026-04-06T12:21:02.973Z</time></trkpt><trkpt lat="37.1469965" lon="14.9043399"><ele>655.9999999999999</ele><time>2026-04-06T12:21:16.956Z</time></trkpt><trkpt lat="37.147061" lon="14.9042833"><ele>656.0</ele><time>2026-04-06T12:21:22.941Z</time></trkpt><trkpt lat="37.147103" lon="14.9042123"><ele>653.1428571428571</ele><time>2026-04-06T12:21:29.055Z</time></trkpt><trkpt lat="37.1471368" lon="14.9041388"><ele>650.2857142857142</ele><time>2026-04-06T12:21:36.476Z</time></trkpt><trkpt lat="37.1471104" lon="14.904062"><ele>647.4285714285713</ele><time>2026-04-06T12:21:44.885Z</time></trkpt><trkpt lat="37.1470396" lon="14.9040617"><ele>644.5714285714286</ele><time>2026-04-06T12:21:51.895Z</time></trkpt><trkpt lat="37.1469726" lon="14.9040577"><ele>641.7142857142858</ele><time>2026-04-06T12:22:13.764Z</time></trkpt><trkpt lat="37.1469092" lon="14.9040323"><ele>638.8571428571428</ele><time>2026-04-06T12:22:20.973Z</time></trkpt><trkpt lat="37.1469607" lon="14.9039828"><ele>636.0</ele><time>2026-04-06T12:22:27.941Z</time></trkpt><trkpt lat="37.1470189" lon="14.9039506"><ele>636.0</ele><time>2026-04-06T12:22:32.933Z</time></trkpt><trkpt lat="37.1470687" lon="14.9038865"><ele>636.0</ele><time>2026-04-06T12:22:44.89Z</time></trkpt><trkpt lat="37.1471013" lon="14.9038091"><ele>636.0</ele><time>2026-04-06T12:22:51.961Z</time></trkpt><trkpt lat="37.1471518" lon="14.9037533"><ele>636.0</ele><time>2026-04-06T12:22:58.929Z</time></trkpt><trkpt lat="37.1472094" lon="14.9037112"><ele>636.0</ele><time>2026-04-06T12:23:04.961Z</time></trkpt><trkpt lat="37.1472759" lon="14.9037126"><ele>636.0</ele><time>2026-04-06T12:23:11.524Z</time></trkpt><trkpt lat="37.1473394" lon="14.9036985"><ele>636.0</ele><time>2026-04-06T12:23:17.983Z</time></trkpt><trkpt lat="37.1474017" lon="14.9036832"><ele>633.0</ele><time>2026-04-06T12:23:25.925Z</time></trkpt><trkpt lat="37.1474642" lon="14.9036654"><ele>630.0</ele><time>2026-04-06T12:23:32.937Z</time></trkpt><trkpt lat="37.1475276" lon="14.9036813"><ele>627.0</ele><time>2026-04-06T12:23:39.906Z</time></trkpt><trkpt lat="37.1475837" lon="14.9037374"><ele>624.0</ele><time>2026-04-06T12:23:47.913Z</time></trkpt><trkpt lat="37.1476169" lon="14.9038088"><ele>621.0</ele><time>2026-04-06T12:23:58.937Z</time></trkpt><trkpt lat="37.1476775" lon="14.9038331"><ele>618.0</ele><time>2026-04-06T12:24:11.938Z</time></trkpt><trkpt lat="37.147685" lon="14.9037397"><ele>615.0</ele><time>2026-04-06T12:24:16.929Z</time></trkpt><trkpt lat="37.1476539" lon="14.9036632"><ele>615.0</ele><time>2026-04-06T12:24:23.897Z</time></trkpt><trkpt lat="37.147595" lon="14.9036136"><ele>615.0</ele><time>2026-04-06T12:24:30.969Z</time></trkpt><trkpt lat="37.1475401" lon="14.9035624"><ele>615.0</ele><time>2026-04-06T12:24:39.913Z</time></trkpt><trkpt lat="37.1474797" lon="14.9035088"><ele>615.0</ele><time>2026-04-06T12:24:45.945Z</time></trkpt><trkpt lat="37.1474154" lon="14.9034844"><ele>615.0</ele><time>2026-04-06T12:24:51.844Z</time></trkpt><trkpt lat="37.1473515" lon="14.9034642"><ele>615.0</ele><time>2026-04-06T12:24:56.969Z</time></trkpt><trkpt lat="37.1472644" lon="14.9034149"><ele>615.0</ele><time>2026-04-06T12:25:14.961Z</time></trkpt><trkpt lat="37.1472019" lon="14.9033772"><ele>613.7142857142857</ele><time>2026-04-06T12:25:18.809Z</time></trkpt><trkpt lat="37.1471476" lon="14.9033261"><ele>612.4285714285714</ele><time>2026-04-06T12:25:23.906Z</time></trkpt><trkpt lat="37.1471064" lon="14.9032656"><ele>611.1428571428571</ele><time>2026-04-06T12:25:28.903Z</time></trkpt><trkpt lat="37.1470588" lon="14.9032026"><ele>609.8571428571429</ele><time>2026-04-06T12:25:33.864Z</time></trkpt><trkpt lat="37.1470202" lon="14.9031348"><ele>608.5714285714286</ele><time>2026-04-06T12:25:41.883Z</time></trkpt><trkpt lat="37.146967" lon="14.9030897"><ele>607.2857142857143</ele><time>2026-04-06T12:25:51.881Z</time></trkpt><trkpt lat="37.146922" lon="14.9030106"><ele>606.0</ele><time>2026-04-06T12:26:22.747Z</time></trkpt><trkpt lat="37.1468755" lon="14.9029412"><ele>606.0</ele><time>2026-04-06T12:26:28.906Z</time></trkpt><trkpt lat="37.1468511" lon="14.9028601"><ele>606.0</ele><time>2026-04-06T12:26:57.921Z</time></trkpt><trkpt lat="37.1468463" lon="14.9027787"><ele>606.0</ele><time>2026-04-06T12:27:05.826Z</time></trkpt><trkpt lat="37.1468714" lon="14.9026775"><ele>606.0</ele><time>2026-04-06T12:28:05.683Z</time></trkpt><trkpt lat="37.1468645" lon="14.9025949"><ele>606.0</ele><time>2026-04-06T12:28:10.929Z</time></trkpt><trkpt lat="37.1468562" lon="14.9025147"><ele>606.0</ele><time>2026-04-06T12:28:17.897Z</time></trkpt><trkpt lat="37.146862" lon="14.9024259"><ele>606.0</ele><time>2026-04-06T12:28:24.97Z</time></trkpt><trkpt lat="37.1468568" lon="14.9023436"><ele>603.1428571428571</ele><time>2026-04-06T12:28:31.938Z</time></trkpt><trkpt lat="37.1468627" lon="14.9022586"><ele>600.2857142857142</ele><time>2026-04-06T12:28:39.946Z</time></trkpt><trkpt lat="37.1468432" lon="14.9021829"><ele>597.4285714285713</ele><time>2026-04-06T12:28:46.904Z</time></trkpt><trkpt lat="37.1468634" lon="14.9020995"><ele>594.5714285714286</ele><time>2026-04-06T12:28:55.945Z</time></trkpt><trkpt lat="37.146898" lon="14.902027"><ele>591.7142857142857</ele><time>2026-04-06T12:29:03.865Z</time></trkpt><trkpt lat="37.1469456" lon="14.9019714"><ele>588.8571428571428</ele><time>2026-04-06T12:29:10.938Z</time></trkpt><trkpt lat="37.1469662" lon="14.9018904"><ele>586.0</ele><time>2026-04-06T12:29:16.969Z</time></trkpt><trkpt lat="37.1470047" lon="14.9018222"><ele>585.9999999999999</ele><time>2026-04-06T12:29:25.913Z</time></trkpt><trkpt lat="37.1470378" lon="14.9017489"><ele>586.0</ele><time>2026-04-06T12:29:32.923Z</time></trkpt><trkpt lat="37.1469973" lon="14.9016834"><ele>586.0</ele><time>2026-04-06T12:29:41.929Z</time></trkpt><trkpt lat="37.1469913" lon="14.9015968"><ele>586.0</ele><time>2026-04-06T12:29:48.897Z</time></trkpt><trkpt lat="37.1469564" lon="14.9015254"><ele>586.0</ele><time>2026-04-06T12:29:57.946Z</time></trkpt><trkpt lat="37.1468946" lon="14.9014958"><ele>585.9999999999999</ele><time>2026-04-06T12:30:04.987Z</time></trkpt><trkpt lat="37.1468234" lon="14.9014814"><ele>586.0</ele><time>2026-04-06T12:30:11.524Z</time></trkpt><trkpt lat="37.1467561" lon="14.9014975"><ele>584.4285714285713</ele><time>2026-04-06T12:30:18.864Z</time></trkpt><trkpt lat="37.1466806" lon="14.9014928"><ele>582.8571428571429</ele><time>2026-04-06T12:30:32.785Z</time></trkpt><trkpt lat="37.1466134" lon="14.9014884"><ele>581.2857142857142</ele><time>2026-04-06T12:30:36.903Z</time></trkpt><trkpt lat="37.1465474" lon="14.9015013"><ele>579.7142857142857</ele><time>2026-04-06T12:30:45.889Z</time></trkpt><trkpt lat="37.1464767" lon="14.9014892"><ele>578.1428571428571</ele><time>2026-04-06T12:30:50.864Z</time></trkpt><trkpt lat="37.1464147" lon="14.9014527"><ele>576.5714285714286</ele><time>2026-04-06T12:30:54.937Z</time></trkpt><trkpt lat="37.146351" lon="14.9014515"><ele>575.0</ele><time>2026-04-06T12:31:02.842Z</time></trkpt><trkpt lat="37.1462883" lon="14.9013984"><ele>572.8571428571429</ele><time>2026-04-06T12:31:08.873Z</time></trkpt><trkpt lat="37.1462227" lon="14.9013509"><ele>570.7142857142857</ele><time>2026-04-06T12:31:13.969Z</time></trkpt><trkpt lat="37.1461567" lon="14.9013123"><ele>568.5714285714286</ele><time>2026-04-06T12:31:20.904Z</time></trkpt><trkpt lat="37.1461001" lon="14.9012622"><ele>566.4285714285714</ele><time>2026-04-06T12:31:30.922Z</time></trkpt><trkpt lat="37.1460423" lon="14.9012233"><ele>564.2857142857142</ele><time>2026-04-06T12:31:37.889Z</time></trkpt><trkpt lat="37.1459787" lon="14.9012027"><ele>562.1428571428571</ele><time>2026-04-06T12:31:42.882Z</time></trkpt><trkpt lat="37.1459528" lon="14.901281"><ele>560.0</ele><time>2026-04-06T12:31:52.969Z</time></trkpt><trkpt lat="37.1459641" lon="14.9013609"><ele>560.0</ele><time>2026-04-06T12:31:59.804Z</time></trkpt><trkpt lat="37.1459724" lon="14.9014414"><ele>560.0</ele><time>2026-04-06T12:32:06.943Z</time></trkpt><trkpt lat="37.1459663" lon="14.901533"><ele>560.0</ele><time>2026-04-06T12:32:13.873Z</time></trkpt><trkpt lat="37.1459448" lon="14.9016184"><ele>560.0</ele><time>2026-04-06T12:32:17.929Z</time></trkpt><trkpt lat="37.1459309" lon="14.9016976"><ele>560.0</ele><time>2026-04-06T12:32:21.881Z</time></trkpt><trkpt lat="37.1458876" lon="14.9017582"><ele>560.0</ele><time>2026-04-06T12:32:28.865Z</time></trkpt><trkpt lat="37.1458407" lon="14.901821"><ele>560.0</ele><time>2026-04-06T12:32:34.881Z</time></trkpt><trkpt lat="37.1457741" lon="14.9018297"><ele>559.5714285714286</ele><time>2026-04-06T12:32:45.905Z</time></trkpt><trkpt lat="37.1457072" lon="14.9017854"><ele>559.1428571428571</ele><time>2026-04-06T12:32:50.898Z</time></trkpt><trkpt lat="37.1456444" lon="14.9017594"><ele>558.7142857142858</ele><time>2026-04-06T12:32:55.843Z</time></trkpt><trkpt lat="37.1455813" lon="14.9017088"><ele>558.2857142857142</ele><time>2026-04-06T12:33:00.991Z</time></trkpt><trkpt lat="37.1455217" lon="14.9016717"><ele>557.8571428571429</ele><time>2026-04-06T12:33:08.924Z</time></trkpt><trkpt lat="37.145463" lon="14.9016343"><ele>557.4285714285714</ele><time>2026-04-06T12:33:14.921Z</time></trkpt><trkpt lat="37.145398" lon="14.9015997"><ele>557.0</ele><time>2026-04-06T12:33:24.905Z</time></trkpt><trkpt lat="37.1453265" lon="14.9015727"><ele>557.0</ele><time>2026-04-06T12:33:29.897Z</time></trkpt><trkpt lat="37.1452658" lon="14.9015357"><ele>557.0</ele><time>2026-04-06T12:33:34.89Z</time></trkpt><trkpt lat="37.145208" lon="14.901492"><ele>557.0</ele><time>2026-04-06T12:33:41.961Z</time></trkpt><trkpt lat="37.1451394" lon="14.9014671"><ele>557.0</ele><time>2026-04-06T12:33:47.89Z</time></trkpt><trkpt lat="37.1450737" lon="14.9014371"><ele>557.0</ele><time>2026-04-06T12:33:52.882Z</time></trkpt><trkpt lat="37.1450211" lon="14.9013754"><ele>557.0</ele><time>2026-04-06T12:33:58.913Z</time></trkpt><trkpt lat="37.144956" lon="14.9013615"><ele>557.0</ele><time>2026-04-06T12:34:06.922Z</time></trkpt><trkpt lat="37.1448857" lon="14.9013586"><ele>556.0</ele><time>2026-04-06T12:34:12.953Z</time></trkpt><trkpt lat="37.1448139" lon="14.9013783"><ele>555.0</ele><time>2026-04-06T12:34:18.881Z</time></trkpt><trkpt lat="37.1447476" lon="14.9014113"><ele>554.0</ele><time>2026-04-06T12:34:25.849Z</time></trkpt><trkpt lat="37.1446784" lon="14.9014258"><ele>553.0</ele><time>2026-04-06T12:34:31.985Z</time></trkpt><trkpt lat="37.1446239" lon="14.9013679"><ele>552.0</ele><time>2026-04-06T12:34:38.953Z</time></trkpt><trkpt lat="37.1445738" lon="14.901298"><ele>551.0</ele><time>2026-04-06T12:34:44.881Z</time></trkpt><trkpt lat="37.1445405" lon="14.9012272"><ele>550.0</ele><time>2026-04-06T12:34:50.913Z</time></trkpt><trkpt lat="37.1445196" lon="14.9011498"><ele>550.0</ele><time>2026-04-06T12:34:58.921Z</time></trkpt><trkpt lat="37.1444967" lon="14.9010701"><ele>550.0</ele><time>2026-04-06T12:35:05.903Z</time></trkpt><trkpt lat="37.1444672" lon="14.9009956"><ele>550.0</ele><time>2026-04-06T12:35:10.881Z</time></trkpt><trkpt lat="37.1444179" lon="14.9009258"><ele>550.0</ele><time>2026-04-06T12:35:15.977Z</time></trkpt><trkpt lat="37.1443713" lon="14.9008691"><ele>550.0</ele><time>2026-04-06T12:35:20.969Z</time></trkpt><trkpt lat="37.1443013" lon="14.9008392"><ele>550.0</ele><time>2026-04-06T12:35:27.927Z</time></trkpt><trkpt lat="37.1442365" lon="14.9008171"><ele>550.0</ele><time>2026-04-06T12:35:35.945Z</time></trkpt><trkpt lat="37.1441723" lon="14.9007946"><ele>548.0</ele><time>2026-04-06T12:35:40.937Z</time></trkpt><trkpt lat="37.1441229" lon="14.9007356"><ele>546.0</ele><time>2026-04-06T12:35:45.929Z</time></trkpt><trkpt lat="37.144102" lon="14.9006535"><ele>544.0</ele><time>2026-04-06T12:35:50.922Z</time></trkpt><trkpt lat="37.1441006" lon="14.9005721"><ele>542.0</ele><time>2026-04-06T12:35:55.907Z</time></trkpt><trkpt lat="37.1440952" lon="14.9004914"><ele>540.0</ele><time>2026-04-06T12:36:03.921Z</time></trkpt><trkpt lat="37.1440916" lon="14.9003975"><ele>538.0</ele><time>2026-04-06T12:36:10.889Z</time></trkpt><trkpt lat="37.1441286" lon="14.9003292"><ele>536.0</ele><time>2026-04-06T12:36:15.887Z</time></trkpt><trkpt lat="37.1441842" lon="14.9002756"><ele>536.0</ele><time>2026-04-06T12:36:23.889Z</time></trkpt><trkpt lat="37.1442561" lon="14.9002538"><ele>536.0</ele><time>2026-04-06T12:36:29.904Z</time></trkpt><trkpt lat="37.144323" lon="14.900255"><ele>536.0</ele><time>2026-04-06T12:36:35.987Z</time></trkpt><trkpt lat="37.1443875" lon="14.9002511"><ele>536.0</ele><time>2026-04-06T12:36:42.921Z</time></trkpt><trkpt lat="37.1444567" lon="14.9002342"><ele>536.0</ele><time>2026-04-06T12:36:48.954Z</time></trkpt><trkpt lat="37.1445265" lon="14.9002391"><ele>536.0</ele><time>2026-04-06T12:36:55.921Z</time></trkpt><trkpt lat="37.1445966" lon="14.9002287"><ele>536.0</ele><time>2026-04-06T12:37:00.913Z</time></trkpt><trkpt lat="37.1446596" lon="14.9001955"><ele>536.0</ele><time>2026-04-06T12:37:06.946Z</time></trkpt><trkpt lat="37.1447112" lon="14.9001438"><ele>536.0</ele><time>2026-04-06T12:37:13.913Z</time></trkpt><trkpt lat="37.1447314" lon="14.900058"><ele>536.0</ele><time>2026-04-06T12:37:19.823Z</time></trkpt><trkpt lat="37.1447375" lon="14.8999715"><ele>536.0</ele><time>2026-04-06T12:37:25.873Z</time></trkpt><trkpt lat="37.1447534" lon="14.8998911"><ele>536.0</ele><time>2026-04-06T12:37:32.841Z</time></trkpt><trkpt lat="37.1447662" lon="14.899806"><ele>536.0</ele><time>2026-04-06T12:37:41.89Z</time></trkpt><trkpt lat="37.144747" lon="14.8997301"><ele>536.0</ele><time>2026-04-06T12:37:49.898Z</time></trkpt><trkpt lat="37.1447504" lon="14.8996505"><ele>536.0</ele><time>2026-04-06T12:37:56.969Z</time></trkpt><trkpt lat="37.144788" lon="14.8995738"><ele>536.0</ele><time>2026-04-06T12:38:04.977Z</time></trkpt><trkpt lat="37.1448338" lon="14.8995101"><ele>536.0</ele><time>2026-04-06T12:38:10.905Z</time></trkpt><trkpt lat="37.144898" lon="14.8994643"><ele>536.0</ele><time>2026-04-06T12:38:16.937Z</time></trkpt><trkpt lat="37.1449584" lon="14.8994286"><ele>536.0</ele><time>2026-04-06T12:38:23.905Z</time></trkpt><trkpt lat="37.1450289" lon="14.8994002"><ele>536.0</ele><time>2026-04-06T12:38:29.937Z</time></trkpt><trkpt lat="37.1450942" lon="14.8993766"><ele>536.0</ele><time>2026-04-06T12:38:36.906Z</time></trkpt><trkpt lat="37.1451694" lon="14.8993669"><ele>534.5714285714286</ele><time>2026-04-06T12:38:42.823Z</time></trkpt><trkpt lat="37.1452335" lon="14.8993521"><ele>533.1428571428571</ele><time>2026-04-06T12:38:49.905Z</time></trkpt><trkpt lat="37.1452825" lon="14.8992972"><ele>531.7142857142857</ele><time>2026-04-06T12:38:55.937Z</time></trkpt><trkpt lat="37.145297" lon="14.8992173"><ele>530.2857142857142</ele><time>2026-04-06T12:39:02.905Z</time></trkpt><trkpt lat="37.1453028" lon="14.8991317"><ele>528.8571428571428</ele><time>2026-04-06T12:39:08.843Z</time></trkpt><trkpt lat="37.1453087" lon="14.8990455"><ele>527.4285714285714</ele><time>2026-04-06T12:39:15.905Z</time></trkpt><trkpt lat="37.1453073" lon="14.8989533"><ele>526.0</ele><time>2026-04-06T12:39:21.863Z</time></trkpt><trkpt lat="37.1453271" lon="14.8988741"><ele>525.7142857142857</ele><time>2026-04-06T12:39:28.905Z</time></trkpt><trkpt lat="37.1453313" lon="14.898792"><ele>525.4285714285713</ele><time>2026-04-06T12:39:35.978Z</time></trkpt><trkpt lat="37.1453992" lon="14.8987623"><ele>525.1428571428571</ele><time>2026-04-06T12:39:44.921Z</time></trkpt><trkpt lat="37.1454573" lon="14.8988039"><ele>524.8571428571429</ele><time>2026-04-06T12:39:51.889Z</time></trkpt><trkpt lat="37.145507" lon="14.8988625"><ele>524.5714285714287</ele><time>2026-04-06T12:39:57.922Z</time></trkpt><trkpt lat="37.1455666" lon="14.8989115"><ele>524.2857142857143</ele><time>2026-04-06T12:40:04.889Z</time></trkpt><trkpt lat="37.1456338" lon="14.8989152"><ele>524.0</ele><time>2026-04-06T12:40:09.903Z</time></trkpt><trkpt lat="37.1456922" lon="14.8988778"><ele>523.1666666666666</ele><time>2026-04-06T12:40:16.954Z</time></trkpt><trkpt lat="37.1457322" lon="14.8988164"><ele>522.3333333333333</ele><time>2026-04-06T12:40:24.962Z</time></trkpt><trkpt lat="37.1457728" lon="14.8987554"><ele>521.5</ele><time>2026-04-06T12:40:30.964Z</time></trkpt><trkpt lat="37.1458147" lon="14.898692"><ele>520.6666666666666</ele><time>2026-04-06T12:40:36.921Z</time></trkpt><trkpt lat="37.1458634" lon="14.8986331"><ele>519.8333333333334</ele><time>2026-04-06T12:40:44.923Z</time></trkpt><trkpt lat="37.1459016" lon="14.8985687"><ele>519.0</ele><time>2026-04-06T12:40:50.961Z</time></trkpt><trkpt lat="37.1459646" lon="14.8984258"><ele>520.2857142857142</ele><time>2026-04-06T12:57:45.898Z</time></trkpt><trkpt lat="37.1460083" lon="14.8983591"><ele>521.5714285714286</ele><time>2026-04-06T12:57:52.969Z</time></trkpt><trkpt lat="37.1460469" lon="14.8982925"><ele>522.8571428571429</ele><time>2026-04-06T12:58:00.977Z</time></trkpt><trkpt lat="37.1460876" lon="14.8982223"><ele>524.1428571428571</ele><time>2026-04-06T12:58:13.977Z</time></trkpt><trkpt lat="37.1461371" lon="14.898164"><ele>525.4285714285714</ele><time>2026-04-06T12:58:22.922Z</time></trkpt><trkpt lat="37.1461694" lon="14.8980877"><ele>526.7142857142857</ele><time>2026-04-06T12:58:38.937Z</time></trkpt><trkpt lat="37.1461858" lon="14.8980079"><ele>528.0</ele><time>2026-04-06T12:58:47.881Z</time></trkpt><trkpt lat="37.1461877" lon="14.897922"><ele>528.0</ele><time>2026-04-06T12:58:56.929Z</time></trkpt><trkpt lat="37.14625" lon="14.8978893"><ele>528.0</ele><time>2026-04-06T12:59:06.913Z</time></trkpt><trkpt lat="37.14631" lon="14.8978594"><ele>528.0</ele><time>2026-04-06T12:59:13.881Z</time></trkpt><trkpt lat="37.1463663" lon="14.8978176"><ele>528.0</ele><time>2026-04-06T12:59:20.953Z</time></trkpt><trkpt lat="37.1464136" lon="14.8977469"><ele>528.0</ele><time>2026-04-06T12:59:27.921Z</time></trkpt><trkpt lat="37.1464371" lon="14.8976688"><ele>528.0</ele><time>2026-04-06T12:59:33.953Z</time></trkpt><trkpt lat="37.1464331" lon="14.8975782"><ele>528.0</ele><time>2026-04-06T12:59:40.922Z</time></trkpt><trkpt lat="37.1464593" lon="14.8975039"><ele>527.1428571428571</ele><time>2026-04-06T12:59:49.97Z</time></trkpt><trkpt lat="37.1464519" lon="14.8974171"><ele>526.2857142857143</ele><time>2026-04-06T12:59:56.15Z</time></trkpt><trkpt lat="37.1464493" lon="14.8973376"><ele>525.4285714285714</ele><time>2026-04-06T13:00:01.73Z</time></trkpt><trkpt lat="37.1464289" lon="14.8972532"><ele>524.5714285714286</ele><time>2026-04-06T13:00:08.897Z</time></trkpt><trkpt lat="37.1464262" lon="14.8971718"><ele>523.7142857142857</ele><time>2026-04-06T13:00:14.93Z</time></trkpt><trkpt lat="37.146485" lon="14.8971365"><ele>522.8571428571429</ele><time>2026-04-06T13:00:23.873Z</time></trkpt><trkpt lat="37.1465388" lon="14.8971834"><ele>522.0</ele><time>2026-04-06T13:00:30.945Z</time></trkpt><trkpt lat="37.1465818" lon="14.8972496"><ele>522.0</ele><time>2026-04-06T13:00:36.873Z</time></trkpt><trkpt lat="37.1466377" lon="14.8972995"><ele>522.0</ele><time>2026-04-06T13:00:41.97Z</time></trkpt><trkpt lat="37.1466803" lon="14.8973735"><ele>522.0</ele><time>2026-04-06T13:00:47.791Z</time></trkpt><trkpt lat="37.1467375" lon="14.8974099"><ele>522.0</ele><time>2026-04-06T13:00:53.05Z</time></trkpt><trkpt lat="37.1468092" lon="14.8973864"><ele>522.0</ele><time>2026-04-06T13:01:02.528Z</time></trkpt><trkpt lat="37.1468718" lon="14.897357"><ele>522.0</ele><time>2026-04-06T13:01:07.647Z</time></trkpt><trkpt lat="37.1469355" lon="14.8973583"><ele>522.0</ele><time>2026-04-06T13:01:12.627Z</time></trkpt><trkpt lat="37.1470023" lon="14.8973533"><ele>522.0</ele><time>2026-04-06T13:01:18.767Z</time></trkpt><trkpt lat="37.1470685" lon="14.8973652"><ele>522.0</ele><time>2026-04-06T13:01:23.988Z</time></trkpt><trkpt lat="37.1471318" lon="14.897377"><ele>522.0</ele><time>2026-04-06T13:01:29.906Z</time></trkpt><trkpt lat="37.1472009" lon="14.8973421"><ele>522.0</ele><time>2026-04-06T13:01:36.881Z</time></trkpt><trkpt lat="37.1472708" lon="14.8973124"><ele>522.0</ele><time>2026-04-06T13:01:41.977Z</time></trkpt><trkpt lat="37.1473225" lon="14.8972663"><ele>522.0</ele><time>2026-04-06T13:01:47.771Z</time></trkpt><trkpt lat="37.1473809" lon="14.8972225"><ele>522.0</ele><time>2026-04-06T13:01:54.874Z</time></trkpt><trkpt lat="37.1474433" lon="14.8971986"><ele>519.8571428571429</ele><time>2026-04-06T13:02:02.881Z</time></trkpt><trkpt lat="37.1475024" lon="14.8971702"><ele>517.7142857142857</ele><time>2026-04-06T13:02:07.874Z</time></trkpt><trkpt lat="37.1475635" lon="14.8971356"><ele>515.5714285714286</ele><time>2026-04-06T13:02:13.911Z</time></trkpt><trkpt lat="37.1476292" lon="14.8970982"><ele>513.4285714285714</ele><time>2026-04-06T13:02:19.854Z</time></trkpt><trkpt lat="37.1476956" lon="14.8970818"><ele>511.28571428571433</ele><time>2026-04-06T13:02:26.905Z</time></trkpt><trkpt lat="37.1477615" lon="14.8970481"><ele>509.1428571428571</ele><time>2026-04-06T13:02:32.937Z</time></trkpt><trkpt lat="37.1478172" lon="14.8970109"><ele>507.0</ele><time>2026-04-06T13:02:37.77Z</time></trkpt><trkpt lat="37.1478829" lon="14.8969987"><ele>507.0</ele><time>2026-04-06T13:02:42.991Z</time></trkpt><trkpt lat="37.1479563" lon="14.8970033"><ele>507.0</ele><time>2026-04-06T13:02:50.851Z</time></trkpt><trkpt lat="37.148025" lon="14.8970003"><ele>507.0</ele><time>2026-04-06T13:02:55.947Z</time></trkpt><trkpt lat="37.1480995" lon="14.8969934"><ele>507.0</ele><time>2026-04-06T13:03:03.791Z</time></trkpt><trkpt lat="37.1481702" lon="14.896993"><ele>507.0</ele><time>2026-04-06T13:03:08.921Z</time></trkpt><trkpt lat="37.1482383" lon="14.8969944"><ele>507.0</ele><time>2026-04-06T13:03:13.913Z</time></trkpt><trkpt lat="37.1483035" lon="14.8969981"><ele>507.0</ele><time>2026-04-06T13:03:19.945Z</time></trkpt><trkpt lat="37.1483707" lon="14.8970129"><ele>505.71428571428567</ele><time>2026-04-06T13:03:25.873Z</time></trkpt><trkpt lat="37.1484386" lon="14.8970127"><ele>504.42857142857144</ele><time>2026-04-06T13:03:31.807Z</time></trkpt><trkpt lat="37.1485014" lon="14.8970222"><ele>503.1428571428571</ele><time>2026-04-06T13:03:39.913Z</time></trkpt><trkpt lat="37.1485731" lon="14.8970262"><ele>501.85714285714283</ele><time>2026-04-06T13:03:45.945Z</time></trkpt><trkpt lat="37.1486235" lon="14.8970888"><ele>500.57142857142856</ele><time>2026-04-06T13:03:49.897Z</time></trkpt><trkpt lat="37.1486764" lon="14.8971337"><ele>499.2857142857143</ele><time>2026-04-06T13:03:55.93Z</time></trkpt><trkpt lat="37.1487308" lon="14.8971784"><ele>498.0</ele><time>2026-04-06T13:04:03.938Z</time></trkpt><trkpt lat="37.1487955" lon="14.897218"><ele>498.0</ele><time>2026-04-06T13:04:12.985Z</time></trkpt><trkpt lat="37.1488615" lon="14.8972337"><ele>497.99999999999994</ele><time>2026-04-06T13:04:19.953Z</time></trkpt><trkpt lat="37.1489291" lon="14.8972391"><ele>498.0</ele><time>2026-04-06T13:04:27.962Z</time></trkpt><trkpt lat="37.1489949" lon="14.8972452"><ele>498.0</ele><time>2026-04-06T13:04:35.97Z</time></trkpt><trkpt lat="37.1490618" lon="14.897248"><ele>497.99999999999994</ele><time>2026-04-06T13:04:44.913Z</time></trkpt><trkpt lat="37.1491238" lon="14.8972676"><ele>498.0</ele><time>2026-04-06T13:04:56.978Z</time></trkpt><trkpt lat="37.1491858" lon="14.8973063"><ele>498.0</ele><time>2026-04-06T13:05:04.882Z</time></trkpt><trkpt lat="37.1492409" lon="14.8973494"><ele>498.4285714285714</ele><time>2026-04-06T13:05:11.954Z</time></trkpt><trkpt lat="37.1492954" lon="14.8973917"><ele>498.8571428571428</ele><time>2026-04-06T13:05:18.922Z</time></trkpt><trkpt lat="37.1493427" lon="14.897445"><ele>499.2857142857143</ele><time>2026-04-06T13:05:25.889Z</time></trkpt><trkpt lat="37.1493989" lon="14.8974899"><ele>499.71428571428567</ele><time>2026-04-06T13:05:32.911Z</time></trkpt><trkpt lat="37.1494566" lon="14.897538"><ele>500.1428571428571</ele><time>2026-04-06T13:05:39.929Z</time></trkpt><trkpt lat="37.1495168" lon="14.8975739"><ele>500.57142857142856</ele><time>2026-04-06T13:05:47.938Z</time></trkpt><trkpt lat="37.1495754" lon="14.897626"><ele>501.0</ele><time>2026-04-06T13:05:55.887Z</time></trkpt><trkpt lat="37.1496181" lon="14.8976909"><ele>500.14285714285717</ele><time>2026-04-06T13:06:02.913Z</time></trkpt><trkpt lat="37.1496686" lon="14.8977413"><ele>499.2857142857142</ele><time>2026-04-06T13:06:09.881Z</time></trkpt><trkpt lat="37.1497264" lon="14.8977788"><ele>498.4285714285714</ele><time>2026-04-06T13:06:18.929Z</time></trkpt><trkpt lat="37.1497792" lon="14.8978287"><ele>497.57142857142856</ele><time>2026-04-06T13:06:27.977Z</time></trkpt><trkpt lat="37.1498425" lon="14.8978669"><ele>496.71428571428567</ele><time>2026-04-06T13:06:36.921Z</time></trkpt><trkpt lat="37.1498926" lon="14.8979238"><ele>495.8571428571428</ele><time>2026-04-06T13:06:44.929Z</time></trkpt><trkpt lat="37.1499384" lon="14.8979866"><ele>494.99999999999994</ele><time>2026-04-06T13:06:52.937Z</time></trkpt><trkpt lat="37.1499957" lon="14.8980268"><ele>494.99999999999994</ele><time>2026-04-06T13:06:59.906Z</time></trkpt><trkpt lat="37.1500356" lon="14.8980992"><ele>495.0</ele><time>2026-04-06T13:07:07.913Z</time></trkpt><trkpt lat="37.1500731" lon="14.8981628"><ele>494.99999999999994</ele><time>2026-04-06T13:07:13.946Z</time></trkpt><trkpt lat="37.1501182" lon="14.8982212"><ele>494.99999999999994</ele><time>2026-04-06T13:07:19.873Z</time></trkpt><trkpt lat="37.1501872" lon="14.8982408"><ele>495.0</ele><time>2026-04-06T13:07:26.946Z</time></trkpt><trkpt lat="37.1502549" lon="14.8982401"><ele>494.99999999999994</ele><time>2026-04-06T13:07:35.89Z</time></trkpt><trkpt lat="37.1503242" lon="14.898254"><ele>494.99999999999994</ele><time>2026-04-06T13:07:43.898Z</time></trkpt><trkpt lat="37.1503916" lon="14.898256"><ele>494.99999999999994</ele><time>2026-04-06T13:07:49.929Z</time></trkpt><trkpt lat="37.1504552" lon="14.8982511"><ele>495.0</ele><time>2026-04-06T13:07:56.898Z</time></trkpt><trkpt lat="37.1505228" lon="14.8982372"><ele>494.99999999999994</ele><time>2026-04-06T13:08:06.882Z</time></trkpt><trkpt lat="37.1505929" lon="14.8982475"><ele>494.99999999999994</ele><time>2026-04-06T13:08:13.954Z</time></trkpt><trkpt lat="37.1506591" lon="14.8982744"><ele>495.0</ele><time>2026-04-06T13:08:19.882Z</time></trkpt><trkpt lat="37.1507223" lon="14.8982988"><ele>494.99999999999994</ele><time>2026-04-06T13:08:28.826Z</time></trkpt><trkpt lat="37.1507856" lon="14.8983282"><ele>494.99999999999994</ele><time>2026-04-06T13:08:35.897Z</time></trkpt><trkpt lat="37.1508469" lon="14.8983468"><ele>495.42857142857133</ele><time>2026-04-06T13:08:42.865Z</time></trkpt><trkpt lat="37.1509179" lon="14.8983826"><ele>495.85714285714283</ele><time>2026-04-06T13:08:50.873Z</time></trkpt><trkpt lat="37.1509875" lon="14.8983968"><ele>496.2857142857142</ele><time>2026-04-06T13:08:57.842Z</time></trkpt><trkpt lat="37.1510527" lon="14.8984235"><ele>496.71428571428567</ele><time>2026-04-06T13:09:06.993Z</time></trkpt><trkpt lat="37.1511152" lon="14.8984459"><ele>497.1428571428571</ele><time>2026-04-06T13:09:13.857Z</time></trkpt><trkpt lat="37.1511752" lon="14.89848"><ele>497.57142857142856</ele><time>2026-04-06T13:09:21.865Z</time></trkpt><trkpt lat="37.1512369" lon="14.8985275"><ele>498.0</ele><time>2026-04-06T13:09:28.937Z</time></trkpt><trkpt lat="37.1512966" lon="14.8985637"><ele>495.71428571428567</ele><time>2026-04-06T13:09:35.891Z</time></trkpt><trkpt lat="37.1513613" lon="14.8985917"><ele>493.4285714285714</ele><time>2026-04-06T13:09:43.913Z</time></trkpt><trkpt lat="37.1514212" lon="14.8986283"><ele>491.1428571428571</ele><time>2026-04-06T13:09:50.882Z</time></trkpt><trkpt lat="37.1514817" lon="14.8986774"><ele>488.8571428571429</ele><time>2026-04-06T13:09:59.929Z</time></trkpt><trkpt lat="37.1515478" lon="14.8987062"><ele>486.5714285714286</ele><time>2026-04-06T13:10:34.977Z</time></trkpt><trkpt lat="37.1516087" lon="14.8987317"><ele>484.28571428571433</ele><time>2026-04-06T13:10:39.97Z</time></trkpt><trkpt lat="37.1516744" lon="14.8987693"><ele>482.0</ele><time>2026-04-06T13:10:45.897Z</time></trkpt><trkpt lat="37.1517296" lon="14.898812"><ele>482.0</ele><time>2026-04-06T13:10:52.97Z</time></trkpt><trkpt lat="37.1517964" lon="14.8988332"><ele>482.00000000000006</ele><time>2026-04-06T13:10:59.938Z</time></trkpt><trkpt lat="37.1518603" lon="14.8988398"><ele>482.0</ele><time>2026-04-06T13:11:06.906Z</time></trkpt><trkpt lat="37.1519276" lon="14.8988715"><ele>482.0</ele><time>2026-04-06T13:11:14.891Z</time></trkpt><trkpt lat="37.1519899" lon="14.8988952"><ele>482.00000000000006</ele><time>2026-04-06T13:11:21.881Z</time></trkpt><trkpt lat="37.1520479" lon="14.8989305"><ele>482.0</ele><time>2026-04-06T13:11:29.889Z</time></trkpt><trkpt lat="37.1521085" lon="14.8989578"><ele>482.0</ele><time>2026-04-06T13:11:35.922Z</time></trkpt><trkpt lat="37.1521699" lon="14.8989753"><ele>482.0</ele><time>2026-04-06T13:11:41.831Z</time></trkpt><trkpt lat="37.1522346" lon="14.8989914"><ele>482.00000000000006</ele><time>2026-04-06T13:11:48.921Z</time></trkpt><trkpt lat="37.152297" lon="14.8990135"><ele>482.0</ele><time>2026-04-06T13:11:55.89Z</time></trkpt><trkpt lat="37.1523648" lon="14.8990188"><ele>482.0</ele><time>2026-04-06T13:12:00.882Z</time></trkpt><trkpt lat="37.1524304" lon="14.8990356"><ele>482.00000000000006</ele><time>2026-04-06T13:12:07.953Z</time></trkpt><trkpt lat="37.1525036" lon="14.8990649"><ele>482.0</ele><time>2026-04-06T13:12:26.986Z</time></trkpt><trkpt lat="37.152559" lon="14.899112"><ele>482.0</ele><time>2026-04-06T13:12:32.914Z</time></trkpt><trkpt lat="37.1526191" lon="14.8991521"><ele>483.14285714285717</ele><time>2026-04-06T13:12:38.945Z</time></trkpt><trkpt lat="37.1526863" lon="14.8991759"><ele>484.28571428571433</ele><time>2026-04-06T13:12:45.914Z</time></trkpt><trkpt lat="37.1527527" lon="14.899208"><ele>485.42857142857144</ele><time>2026-04-06T13:12:51.945Z</time></trkpt><trkpt lat="37.1528056" lon="14.8992661"><ele>486.57142857142856</ele><time>2026-04-06T13:12:58.914Z</time></trkpt><trkpt lat="37.1528858" lon="14.8993079"><ele>487.7142857142857</ele><time>2026-04-06T13:13:59.961Z</time></trkpt><trkpt lat="37.1529449" lon="14.8993447"><ele>488.8571428571429</ele><time>2026-04-06T13:14:04.953Z</time></trkpt><trkpt lat="37.1530117" lon="14.8993908"><ele>490.0</ele><time>2026-04-06T13:14:12.962Z</time></trkpt><trkpt lat="37.1530764" lon="14.899421"><ele>487.8571428571429</ele><time>2026-04-06T13:14:20.969Z</time></trkpt><trkpt lat="37.1531354" lon="14.8994569"><ele>485.7142857142857</ele><time>2026-04-06T13:14:26.898Z</time></trkpt><trkpt lat="37.1532003" lon="14.8994944"><ele>483.57142857142856</ele><time>2026-04-06T13:14:34.906Z</time></trkpt><trkpt lat="37.1532607" lon="14.8995175"><ele>481.42857142857144</ele><time>2026-04-06T13:14:41.978Z</time></trkpt><trkpt lat="37.1533217" lon="14.8995432"><ele>479.28571428571433</ele><time>2026-04-06T13:14:49.882Z</time></trkpt><trkpt lat="37.1533869" lon="14.8995632"><ele>477.14285714285717</ele><time>2026-04-06T13:14:57.889Z</time></trkpt><trkpt lat="37.1533533" lon="14.8996321"><ele>475.0</ele><time>2026-04-06T13:15:27.945Z</time></trkpt><trkpt lat="37.1532873" lon="14.8996273"><ele>475.0</ele><time>2026-04-06T13:15:34.913Z</time></trkpt><trkpt lat="37.1532186" lon="14.8996257"><ele>475.00000000000006</ele><time>2026-04-06T13:15:40.946Z</time></trkpt><trkpt lat="37.1531509" lon="14.8996303"><ele>475.0</ele><time>2026-04-06T13:15:47.954Z</time></trkpt><trkpt lat="37.1530833" lon="14.8996541"><ele>475.0</ele><time>2026-04-06T13:15:55.921Z</time></trkpt><trkpt lat="37.153021" lon="14.8996806"><ele>475.00000000000006</ele><time>2026-04-06T13:16:00.871Z</time></trkpt><trkpt lat="37.1529533" lon="14.8996804"><ele>475.0</ele><time>2026-04-06T13:16:05.871Z</time></trkpt><trkpt lat="37.1528874" lon="14.899674"><ele>475.0</ele><time>2026-04-06T13:16:12.978Z</time></trkpt><trkpt lat="37.1528166" lon="14.89966"><ele>474.42857142857144</ele><time>2026-04-06T13:16:19.946Z</time></trkpt><trkpt lat="37.1527457" lon="14.8996563"><ele>473.8571428571429</ele><time>2026-04-06T13:16:27.953Z</time></trkpt><trkpt lat="37.1526765" lon="14.8996387"><ele>473.28571428571433</ele><time>2026-04-06T13:16:34.131Z</time></trkpt><trkpt lat="37.1526031" lon="14.8996281"><ele>472.7142857142858</ele><time>2026-04-06T13:16:42.711Z</time></trkpt><trkpt lat="37.1525401" lon="14.8996062"><ele>472.14285714285717</ele><time>2026-04-06T13:16:46.881Z</time></trkpt><trkpt lat="37.1524844" lon="14.8995577"><ele>471.57142857142867</ele><time>2026-04-06T13:16:53.85Z</time></trkpt><trkpt lat="37.1524338" lon="14.8994969"><ele>471.00000000000006</ele><time>2026-04-06T13:17:00.017Z</time></trkpt><trkpt lat="37.1524021" lon="14.8994138"><ele>471.28571428571433</ele><time>2026-04-06T13:17:06.953Z</time></trkpt><trkpt lat="37.1523513" lon="14.8993641"><ele>471.57142857142856</ele><time>2026-04-06T13:17:11.97Z</time></trkpt><trkpt lat="37.1522874" lon="14.8993341"><ele>471.8571428571429</ele><time>2026-04-06T13:17:19.831Z</time></trkpt><trkpt lat="37.1522174" lon="14.8993238"><ele>472.14285714285717</ele><time>2026-04-06T13:17:26.921Z</time></trkpt><trkpt lat="37.152153" lon="14.8993382"><ele>472.42857142857144</ele><time>2026-04-06T13:17:32.953Z</time></trkpt><trkpt lat="37.1520912" lon="14.8993768"><ele>472.7142857142857</ele><time>2026-04-06T13:17:38.881Z</time></trkpt><trkpt lat="37.1520329" lon="14.8994254"><ele>473.0</ele><time>2026-04-06T13:17:45.953Z</time></trkpt><trkpt lat="37.1519842" lon="14.8994811"><ele>473.0</ele><time>2026-04-06T13:17:51.935Z</time></trkpt><trkpt lat="37.151936" lon="14.8995525"><ele>473.0</ele><time>2026-04-06T13:17:58.993Z</time></trkpt><trkpt lat="37.1519024" lon="14.8996213"><ele>473.0</ele><time>2026-04-06T13:18:04.89Z</time></trkpt><trkpt lat="37.1518707" lon="14.8996929"><ele>473.0</ele><time>2026-04-06T13:18:11.911Z</time></trkpt><trkpt lat="37.1518226" lon="14.8997601"><ele>473.0</ele><time>2026-04-06T13:18:17.985Z</time></trkpt><trkpt lat="37.1517728" lon="14.8998136"><ele>473.0</ele><time>2026-04-06T13:18:24.954Z</time></trkpt><trkpt lat="37.1517099" lon="14.8998566"><ele>473.0</ele><time>2026-04-06T13:18:30.882Z</time></trkpt><trkpt lat="37.1516466" lon="14.8998245"><ele>473.0</ele><time>2026-04-06T13:18:37.849Z</time></trkpt><trkpt lat="37.1515941" lon="14.8997799"><ele>473.0</ele><time>2026-04-06T13:18:44.921Z</time></trkpt><trkpt lat="37.1516064" lon="14.8998621"><ele>473.0</ele><time>2026-04-06T13:21:53.893Z</time></trkpt><trkpt lat="37.1516711" lon="14.8998794"><ele>473.0</ele><time>2026-04-06T13:22:01.901Z</time></trkpt><trkpt lat="37.1517342" lon="14.8998625"><ele>473.0</ele><time>2026-04-06T13:22:07.934Z</time></trkpt><trkpt lat="37.1517828" lon="14.8998091"><ele>473.0</ele><time>2026-04-06T13:22:17.813Z</time></trkpt><trkpt lat="37.151833" lon="14.8997447"><ele>473.0</ele><time>2026-04-06T13:22:24.99Z</time></trkpt><trkpt lat="37.15186" lon="14.8996646"><ele>473.0</ele><time>2026-04-06T13:22:36.835Z</time></trkpt><trkpt lat="37.1518945" lon="14.8995927"><ele>473.0</ele><time>2026-04-06T13:22:43.918Z</time></trkpt><trkpt lat="37.1519417" lon="14.8995255"><ele>473.0</ele><time>2026-04-06T13:22:50.885Z</time></trkpt><trkpt lat="37.1519866" lon="14.8994625"><ele>473.0</ele><time>2026-04-06T13:22:56.917Z</time></trkpt><trkpt lat="37.1520405" lon="14.8994119"><ele>473.0</ele><time>2026-04-06T13:23:06.901Z</time></trkpt><trkpt lat="37.1520967" lon="14.8993688"><ele>473.0</ele><time>2026-04-06T13:23:14.91Z</time></trkpt><trkpt lat="37.1521635" lon="14.8993398"><ele>473.0</ele><time>2026-04-06T13:23:21.981Z</time></trkpt><trkpt lat="37.152226" lon="14.8993518"><ele>473.0</ele><time>2026-04-06T13:23:27.91Z</time></trkpt><trkpt lat="37.1522907" lon="14.8993711"><ele>473.0</ele><time>2026-04-06T13:23:35.918Z</time></trkpt><trkpt lat="37.1523346" lon="14.8994315"><ele>473.0</ele><time>2026-04-06T13:23:43.925Z</time></trkpt><trkpt lat="37.1523899" lon="14.89949"><ele>473.0</ele><time>2026-04-06T13:23:50.893Z</time></trkpt><trkpt lat="37.1524276" lon="14.8995562"><ele>473.0</ele><time>2026-04-06T13:24:06.91Z</time></trkpt><trkpt lat="37.1524911" lon="14.8995754"><ele>473.0</ele><time>2026-04-06T13:24:23.861Z</time></trkpt><trkpt lat="37.1525495" lon="14.8996251"><ele>473.0</ele><time>2026-04-06T13:24:30.933Z</time></trkpt><trkpt lat="37.1526083" lon="14.8996567"><ele>472.7142857142857</ele><time>2026-04-06T13:24:38.941Z</time></trkpt><trkpt lat="37.1526731" lon="14.8996625"><ele>472.42857142857144</ele><time>2026-04-06T13:24:46.95Z</time></trkpt><trkpt lat="37.1527421" lon="14.8996501"><ele>472.14285714285717</ele><time>2026-04-06T13:24:54.958Z</time></trkpt><trkpt lat="37.1528046" lon="14.8996751"><ele>471.8571428571429</ele><time>2026-04-06T13:25:04.941Z</time></trkpt><trkpt lat="37.1528708" lon="14.8996879"><ele>471.57142857142856</ele><time>2026-04-06T13:25:13.885Z</time></trkpt><trkpt lat="37.152942" lon="14.8996934"><ele>471.28571428571433</ele><time>2026-04-06T13:25:21.894Z</time></trkpt><trkpt lat="37.153013" lon="14.8996735"><ele>471.00000000000006</ele><time>2026-04-06T13:25:28.861Z</time></trkpt><trkpt lat="37.1530767" lon="14.8996569"><ele>471.00000000000006</ele><time>2026-04-06T13:25:39.887Z</time></trkpt><trkpt lat="37.1531415" lon="14.8996474"><ele>471.0</ele><time>2026-04-06T13:25:46.957Z</time></trkpt><trkpt lat="37.1532114" lon="14.8996682"><ele>471.00000000000006</ele><time>2026-04-06T13:25:52.947Z</time></trkpt><trkpt lat="37.1532754" lon="14.8996596"><ele>471.00000000000006</ele><time>2026-04-06T13:25:59.957Z</time></trkpt><trkpt lat="37.1533502" lon="14.8996462"><ele>471.0</ele><time>2026-04-06T13:26:08.901Z</time></trkpt><trkpt lat="37.1534034" lon="14.8995986"><ele>471.00000000000006</ele><time>2026-04-06T13:26:15.974Z</time></trkpt><trkpt lat="37.1533541" lon="14.8995442"><ele>471.00000000000006</ele><time>2026-04-06T13:28:18.905Z</time></trkpt><trkpt lat="37.1534147" lon="14.8995762"><ele>471.57142857142867</ele><time>2026-04-06T13:29:18.913Z</time></trkpt><trkpt lat="37.1534816" lon="14.8995909"><ele>472.14285714285717</ele><time>2026-04-06T13:29:26.921Z</time></trkpt><trkpt lat="37.1535464" lon="14.899596"><ele>472.7142857142858</ele><time>2026-04-06T13:29:35.97Z</time></trkpt><trkpt lat="37.1536136" lon="14.8996013"><ele>473.28571428571433</ele><time>2026-04-06T13:29:55.938Z</time></trkpt><trkpt lat="37.1536768" lon="14.8995982"><ele>473.8571428571429</ele><time>2026-04-06T13:30:30.881Z</time></trkpt><trkpt lat="37.1537354" lon="14.8995679"><ele>474.42857142857144</ele><time>2026-04-06T13:30:45.961Z</time></trkpt><trkpt lat="37.1538005" lon="14.8995576"><ele>475.0</ele><time>2026-04-06T13:30:55.945Z</time></trkpt><trkpt lat="37.153868" lon="14.8995379"><ele>475.0</ele><time>2026-04-06T13:31:20.906Z</time></trkpt><trkpt lat="37.1539331" lon="14.899534"><ele>475.00000000000006</ele><time>2026-04-06T13:31:28.913Z</time></trkpt><trkpt lat="37.1539948" lon="14.8995127"><ele>475.0</ele><time>2026-04-06T13:31:51.884Z</time></trkpt><trkpt lat="37.1540553" lon="14.8995465"><ele>475.0</ele><time>2026-04-06T13:32:05.923Z</time></trkpt><trkpt lat="37.1541278" lon="14.8995468"><ele>475.00000000000006</ele><time>2026-04-06T13:32:16.857Z</time></trkpt><trkpt lat="37.1541934" lon="14.8995541"><ele>475.0</ele><time>2026-04-06T13:32:24.865Z</time></trkpt><trkpt lat="37.1542602" lon="14.8995597"><ele>475.0</ele><time>2026-04-06T13:32:36.929Z</time></trkpt><trkpt lat="37.1543233" lon="14.8995671"><ele>475.14285714285717</ele><time>2026-04-06T13:32:44.938Z</time></trkpt><trkpt lat="37.1543857" lon="14.8995405"><ele>475.28571428571433</ele><time>2026-04-06T13:33:00.953Z</time></trkpt><trkpt lat="37.1544564" lon="14.8995288"><ele>475.42857142857144</ele><time>2026-04-06T13:33:08.986Z</time></trkpt><trkpt lat="37.154526" lon="14.8995155"><ele>475.57142857142856</ele><time>2026-04-06T13:33:19.903Z</time></trkpt><trkpt lat="37.1545865" lon="14.8994873"><ele>475.7142857142857</ele><time>2026-04-06T13:33:29.824Z</time></trkpt><trkpt lat="37.1546562" lon="14.8994763"><ele>475.8571428571429</ele><time>2026-04-06T13:33:39.849Z</time></trkpt><trkpt lat="37.1547151" lon="14.8994449"><ele>476.0</ele><time>2026-04-06T13:33:47.858Z</time></trkpt><trkpt lat="37.1547839" lon="14.8994295"><ele>476.0</ele><time>2026-04-06T13:34:11.881Z</time></trkpt><trkpt lat="37.15485" lon="14.8994419"><ele>476.0</ele><time>2026-04-06T13:34:21.866Z</time></trkpt><trkpt lat="37.1548983" lon="14.8993878"><ele>476.0</ele><time>2026-04-06T13:34:31.85Z</time></trkpt><trkpt lat="37.1549686" lon="14.8993862"><ele>476.0</ele><time>2026-04-06T13:34:40.898Z</time></trkpt><trkpt lat="37.1550331" lon="14.899371"><ele>476.0</ele><time>2026-04-06T13:34:49.842Z</time></trkpt><trkpt lat="37.1550932" lon="14.8993355"><ele>476.0</ele><time>2026-04-06T13:35:06.893Z</time></trkpt><trkpt lat="37.1551226" lon="14.8992646"><ele>476.0</ele><time>2026-04-06T13:35:13.965Z</time></trkpt><trkpt lat="37.1551736" lon="14.8992145"><ele>476.1428571428571</ele><time>2026-04-06T13:35:21.955Z</time></trkpt><trkpt lat="37.1552165" lon="14.8991476"><ele>476.2857142857143</ele><time>2026-04-06T13:35:31.854Z</time></trkpt><trkpt lat="37.1552509" lon="14.8990698"><ele>476.42857142857144</ele><time>2026-04-06T13:35:39.965Z</time></trkpt><trkpt lat="37.1552748" lon="14.8989889"><ele>476.57142857142856</ele><time>2026-04-06T13:35:47.869Z</time></trkpt><trkpt lat="37.1553198" lon="14.8989211"><ele>476.71428571428567</ele><time>2026-04-06T13:35:55.878Z</time></trkpt><trkpt lat="37.1553823" lon="14.89887"><ele>476.85714285714283</ele><time>2026-04-06T13:36:04.926Z</time></trkpt><trkpt lat="37.155408" lon="14.8987962"><ele>477.0</ele><time>2026-04-06T13:36:20.941Z</time></trkpt><trkpt lat="37.155468" lon="14.8987634"><ele>477.0</ele><time>2026-04-06T13:36:30.925Z</time></trkpt><trkpt lat="37.1555181" lon="14.8988114"><ele>476.99999999999994</ele><time>2026-04-06T13:36:38.933Z</time></trkpt><trkpt lat="37.1555672" lon="14.8988667"><ele>477.0</ele><time>2026-04-06T13:36:44.966Z</time></trkpt><trkpt lat="37.1556133" lon="14.8989263"><ele>477.0</ele><time>2026-04-06T13:36:53.909Z</time></trkpt><trkpt lat="37.1556602" lon="14.8989813"><ele>476.99999999999994</ele><time>2026-04-06T13:37:01.918Z</time></trkpt><trkpt lat="37.1557227" lon="14.8990158"><ele>477.0</ele><time>2026-04-06T13:37:09.925Z</time></trkpt><trkpt lat="37.1557784" lon="14.8990655"><ele>477.0</ele><time>2026-04-06T13:37:18.973Z</time></trkpt><trkpt lat="37.1558277" lon="14.8991196"><ele>477.1428571428571</ele><time>2026-04-06T13:37:25.941Z</time></trkpt><trkpt lat="37.155887" lon="14.8991532"><ele>477.2857142857142</ele><time>2026-04-06T13:37:33.845Z</time></trkpt><trkpt lat="37.155953" lon="14.8991658"><ele>477.42857142857144</ele><time>2026-04-06T13:37:42.893Z</time></trkpt><trkpt lat="37.1560139" lon="14.8991158"><ele>477.57142857142856</ele><time>2026-04-06T13:37:49.966Z</time></trkpt><trkpt lat="37.156075" lon="14.8991403"><ele>477.7142857142857</ele><time>2026-04-06T13:37:56.934Z</time></trkpt><trkpt lat="37.1561286" lon="14.8992027"><ele>477.8571428571429</ele><time>2026-04-06T13:38:03.902Z</time></trkpt><trkpt lat="37.1561873" lon="14.899249"><ele>478.00000000000006</ele><time>2026-04-06T13:38:10.91Z</time></trkpt><trkpt lat="37.1562516" lon="14.8992845"><ele>477.57142857142867</ele><time>2026-04-06T13:38:17.941Z</time></trkpt><trkpt lat="37.1563085" lon="14.8993249"><ele>477.14285714285717</ele><time>2026-04-06T13:38:23.973Z</time></trkpt><trkpt lat="37.1563774" lon="14.8993492"><ele>476.7142857142858</ele><time>2026-04-06T13:38:30.941Z</time></trkpt><trkpt lat="37.1564456" lon="14.8993667"><ele>476.28571428571433</ele><time>2026-04-06T13:38:36.974Z</time></trkpt><trkpt lat="37.1565061" lon="14.8993913"><ele>475.8571428571429</ele><time>2026-04-06T13:38:47.889Z</time></trkpt><trkpt lat="37.1565625" lon="14.8993437"><ele>475.42857142857144</ele><time>2026-04-06T13:38:54.026Z</time></trkpt><trkpt lat="37.156632" lon="14.8993502"><ele>475.0</ele><time>2026-04-06T13:39:00.889Z</time></trkpt><trkpt lat="37.1566967" lon="14.89935"><ele>475.0</ele><time>2026-04-06T13:39:06.921Z</time></trkpt><trkpt lat="37.1567636" lon="14.8993669"><ele>475.00000000000006</ele><time>2026-04-06T13:39:15.865Z</time></trkpt><trkpt lat="37.1568324" lon="14.8993667"><ele>475.0</ele><time>2026-04-06T13:39:21.898Z</time></trkpt><trkpt lat="37.1569011" lon="14.899358"><ele>475.0</ele><time>2026-04-06T13:39:29.905Z</time></trkpt><trkpt lat="37.1569653" lon="14.8993409"><ele>475.00000000000006</ele><time>2026-04-06T13:40:53.937Z</time></trkpt><trkpt lat="37.1570145" lon="14.8992794"><ele>475.0</ele><time>2026-04-06T13:40:59.97Z</time></trkpt><trkpt lat="37.1570684" lon="14.8992363"><ele>475.0</ele><time>2026-04-06T13:41:08.705Z</time></trkpt><trkpt lat="37.1571259" lon="14.8991896"><ele>475.0</ele><time>2026-04-06T13:41:15.881Z</time></trkpt></trkseg></trk></gpx>